PWSweather.com
Personal Weather Stations
Station Observations

GerenaES 41860

Lat: 37.530965, Lon: -6.150384

Elevation: 120

Station Type: Vantage VUE

http://meteogerena.blogspot.com.es/

High Low Average
Temperature 65.3°F18.5°C 55.4°F13.0°C 61.0°F16.1°C
Dew Point 57.2°F14.0°C 49.5°F9.7°C 54.2°F12.3°C
Winds 4.0 mph 6.4 kmh Calm Calm 1.0 mph NE1.6 kmh NE
Wind Gusts 10.0 mph16.1 kmh -- 4.0 mph6.4 kmh
Humidity 90% 58% 79%
Pressure 30.03 in1016.9 mb 29.93 in1013.5 mb -
Precipitation 0.47 in11.9 mm - -
Hour Temp Dew Point Humidity Winds Wind Gusts Pressure Precip Precip Rate Daily Precip Total
03:59 PM 64.0°F17.8°C 50.8°F10.4°C 62% Calm Calm -- 29.94 in1013.9 mb 0.37 in9.4 mm 0.38 in9.7 mm 0.40 in10.2 mm
04:00 PM 64.4°F18.0°C 51.1°F10.6°C 62% Calm Calm 1.0 mph1.6 kmh 29.94 in1013.9 mb 0.37 in9.4 mm 0.00 in0.0 mm 0.40 in10.2 mm
04:01 PM 64.6°F18.1°C 51.3°F10.7°C 62% Calm Calm 1.0 mph1.6 kmh 29.94 in1013.9 mb 0.37 in9.4 mm 0.00 in0.0 mm 0.40 in10.2 mm
04:02 PM 64.6°F18.1°C 50.8°F10.4°C 61% Calm Calm 1.0 mph1.6 kmh 29.94 in1013.9 mb 0.37 in9.4 mm 0.00 in0.0 mm 0.40 in10.2 mm
04:03 PM 64.8°F18.2°C 51.4°F10.8°C 62% Calm Calm 1.0 mph1.6 kmh 29.94 in1013.9 mb 0.37 in9.4 mm 0.00 in0.0 mm 0.40 in10.2 mm
04:04 PM 64.8°F18.2°C 51.0°F10.6°C 61% Calm Calm 3.0 mph4.8 kmh 29.94 in1013.9 mb 0.37 in9.4 mm 0.00 in0.0 mm 0.40 in10.2 mm
04:05 PM 64.8°F18.2°C 50.1°F10.1°C 59% Calm Calm 5.0 mph8.0 kmh 29.94 in1013.9 mb 0.37 in9.4 mm 0.00 in0.0 mm 0.40 in10.2 mm
04:06 PM 64.6°F18.1°C 49.5°F9.7°C 58% Calm Calm 5.0 mph8.0 kmh 29.94 in1013.9 mb 0.37 in9.4 mm 0.00 in0.0 mm 0.40 in10.2 mm
04:07 PM 64.6°F18.1°C 49.9°F9.9°C 59% Calm Calm 5.0 mph8.0 kmh 29.93 in1013.5 mb 0.37 in9.4 mm 0.00 in0.0 mm 0.40 in10.2 mm
04:08 PM 64.6°F18.1°C 50.4°F10.2°C 60% Calm Calm 5.0 mph8.0 kmh 29.94 in1013.9 mb 0.37 in9.4 mm 0.00 in0.0 mm 0.40 in10.2 mm
04:09 PM 64.6°F18.1°C 50.8°F10.4°C 61% Calm Calm 5.0 mph8.0 kmh 29.93 in1013.5 mb 0.37 in9.4 mm 0.00 in0.0 mm 0.40 in10.2 mm
04:10 PM 64.6°F18.1°C 50.8°F10.4°C 61% Calm Calm 5.0 mph8.0 kmh 29.94 in1013.9 mb 0.37 in9.4 mm 0.00 in0.0 mm 0.40 in10.2 mm
04:11 PM 64.6°F18.1°C 50.8°F10.4°C 61% 1.0 mph NNE1.6 kmh NNE 5.0 mph8.0 kmh 29.94 in1013.9 mb 0.37 in9.4 mm 0.00 in0.0 mm 0.40 in10.2 mm
04:12 PM 64.8°F18.2°C 51.0°F10.6°C 61% 1.0 mph NNE1.6 kmh NNE 5.0 mph8.0 kmh 29.93 in1013.5 mb 0.37 in9.4 mm 0.00 in0.0 mm 0.40 in10.2 mm
04:13 PM 64.8°F18.2°C 51.0°F10.6°C 61% 1.0 mph NNE1.6 kmh NNE 5.0 mph8.0 kmh 29.93 in1013.5 mb 0.37 in9.4 mm 0.00 in0.0 mm 0.40 in10.2 mm
04:14 PM 64.9°F18.3°C 51.6°F10.9°C 62% 1.0 mph NNE1.6 kmh NNE 5.0 mph8.0 kmh 29.94 in1013.9 mb 0.37 in9.4 mm 0.00 in0.0 mm 0.40 in10.2 mm
04:15 PM 64.9°F18.3°C 50.7°F10.4°C 60% 1.0 mph NE1.6 kmh NE 4.0 mph6.4 kmh 29.93 in1013.5 mb 0.37 in9.4 mm 0.00 in0.0 mm 0.40 in10.2 mm
04:16 PM 64.9°F18.3°C 51.6°F10.9°C 62% 1.0 mph NE1.6 kmh NE 4.0 mph6.4 kmh 29.94 in1013.9 mb 0.37 in9.4 mm 0.00 in0.0 mm 0.40 in10.2 mm
04:17 PM 65.1°F18.4°C 51.3°F10.7°C 61% 1.0 mph NE1.6 kmh NE 4.0 mph6.4 kmh 29.93 in1013.5 mb 0.37 in9.4 mm 0.00 in0.0 mm 0.40 in10.2 mm
04:18 PM 65.1°F18.4°C 51.3°F10.7°C 61% 1.0 mph NE1.6 kmh NE 4.0 mph6.4 kmh 29.94 in1013.9 mb 0.37 in9.4 mm 0.00 in0.0 mm 0.40 in10.2 mm
04:19 PM 65.3°F18.5°C 51.5°F10.8°C 61% 1.0 mph NNE1.6 kmh NNE 4.0 mph6.4 kmh 29.93 in1013.5 mb 0.37 in9.4 mm 0.00 in0.0 mm 0.40 in10.2 mm
04:20 PM 65.1°F18.4°C 50.9°F10.5°C 60% 1.0 mph N1.6 kmh N 4.0 mph6.4 kmh 29.93 in1013.5 mb 0.37 in9.4 mm 0.00 in0.0 mm 0.40 in10.2 mm
04:21 PM 65.1°F18.4°C 50.9°F10.5°C 60% 1.0 mph N1.6 kmh N 4.0 mph6.4 kmh 29.94 in1013.9 mb 0.37 in9.4 mm 0.00 in0.0 mm 0.40 in10.2 mm
04:22 PM 65.1°F18.4°C 51.3°F10.7°C 61% 1.0 mph N1.6 kmh N 4.0 mph6.4 kmh 29.93 in1013.5 mb 0.37 in9.4 mm 0.00 in0.0 mm 0.40 in10.2 mm
04:23 PM 64.9°F18.3°C 51.2°F10.7°C 61% 1.0 mph N1.6 kmh N 4.0 mph6.4 kmh 29.93 in1013.5 mb 0.37 in9.4 mm 0.00 in0.0 mm 0.40 in10.2 mm
04:24 PM 64.9°F18.3°C 51.6°F10.9°C 62% 1.0 mph N1.6 kmh N 4.0 mph6.4 kmh 29.93 in1013.5 mb 0.37 in9.4 mm 0.00 in0.0 mm 0.40 in10.2 mm
04:25 PM 65.1°F18.4°C 51.8°F11.0°C 62% 1.0 mph N1.6 kmh N 4.0 mph6.4 kmh 29.93 in1013.5 mb 0.37 in9.4 mm 0.00 in0.0 mm 0.40 in10.2 mm
04:26 PM 65.1°F18.4°C 51.8°F11.0°C 62% 1.0 mph N1.6 kmh N 4.0 mph6.4 kmh 29.93 in1013.5 mb 0.37 in9.4 mm 0.00 in0.0 mm 0.40 in10.2 mm
04:27 PM 65.1°F18.4°C 51.8°F11.0°C 62% 1.0 mph N1.6 kmh N 4.0 mph6.4 kmh 29.93 in1013.5 mb 0.37 in9.4 mm 0.00 in0.0 mm 0.40 in10.2 mm
04:28 PM 65.1°F18.4°C 51.8°F11.0°C 62% 1.0 mph N1.6 kmh N 4.0 mph6.4 kmh 29.93 in1013.5 mb 0.37 in9.4 mm 0.00 in0.0 mm 0.40 in10.2 mm
04:29 PM 65.1°F18.4°C 51.8°F11.0°C 62% 1.0 mph N1.6 kmh N 4.0 mph6.4 kmh 29.93 in1013.5 mb 0.37 in9.4 mm 0.00 in0.0 mm 0.40 in10.2 mm
04:30 PM 65.1°F18.4°C 52.2°F11.2°C 63% 1.0 mph N1.6 kmh N 4.0 mph6.4 kmh 29.93 in1013.5 mb 0.37 in9.4 mm 0.00 in0.0 mm 0.40 in10.2 mm
04:31 PM 64.9°F18.3°C 52.0°F11.1°C 63% 1.0 mph N1.6 kmh N 5.0 mph8.0 kmh 29.93 in1013.5 mb 0.37 in9.4 mm 0.00 in0.0 mm 0.40 in10.2 mm
04:32 PM 64.9°F18.3°C 52.0°F11.1°C 63% 1.0 mph N1.6 kmh N 5.0 mph8.0 kmh 29.93 in1013.5 mb 0.37 in9.4 mm 0.00 in0.0 mm 0.40 in10.2 mm
04:33 PM 64.8°F18.2°C 51.9°F11.1°C 63% 1.0 mph N1.6 kmh N 5.0 mph8.0 kmh 29.93 in1013.5 mb 0.00 in0.0 mm 0.00 in0.0 mm 0.40 in10.2 mm
04:34 PM 64.6°F18.1°C 51.7°F10.9°C 63% 1.0 mph N1.6 kmh N 5.0 mph8.0 kmh 29.93 in1013.5 mb 0.00 in0.0 mm 0.00 in0.0 mm 0.40 in10.2 mm
04:35 PM 64.6°F18.1°C 51.7°F10.9°C 63% 1.0 mph N1.6 kmh N 5.0 mph8.0 kmh 29.93 in1013.5 mb 0.00 in0.0 mm 0.00 in0.0 mm 0.40 in10.2 mm
04:36 PM 64.4°F18.0°C 52.0°F11.1°C 64% 1.0 mph N1.6 kmh N 5.0 mph8.0 kmh 29.93 in1013.5 mb 0.00 in0.0 mm 0.00 in0.0 mm 0.40 in10.2 mm
04:37 PM 64.2°F17.9°C 51.8°F11.0°C 64% 1.0 mph N1.6 kmh N 5.0 mph8.0 kmh 29.93 in1013.5 mb 0.00 in0.0 mm 0.00 in0.0 mm 0.40 in10.2 mm
04:38 PM 64.2°F17.9°C 51.8°F11.0°C 64% 1.0 mph N1.6 kmh N 5.0 mph8.0 kmh 29.93 in1013.5 mb 0.00 in0.0 mm 0.00 in0.0 mm 0.40 in10.2 mm
04:39 PM 64.2°F17.9°C 52.2°F11.2°C 65% 1.0 mph N1.6 kmh N 5.0 mph8.0 kmh 29.93 in1013.5 mb 0.00 in0.0 mm 0.00 in0.0 mm 0.40 in10.2 mm
04:40 PM 64.2°F17.9°C 52.2°F11.2°C 65% 2.0 mph N3.2 kmh N 5.0 mph8.0 kmh 29.93 in1013.5 mb 0.00 in0.0 mm 0.00 in0.0 mm 0.40 in10.2 mm
04:41 PM 64.2°F17.9°C 52.6°F11.4°C 66% 2.0 mph N3.2 kmh N 5.0 mph8.0 kmh 29.93 in1013.5 mb 0.00 in0.0 mm 0.00 in0.0 mm 0.40 in10.2 mm
04:42 PM 64.2°F17.9°C 52.2°F11.2°C 65% 2.0 mph N3.2 kmh N 5.0 mph8.0 kmh 29.93 in1013.5 mb 0.00 in0.0 mm 0.00 in0.0 mm 0.40 in10.2 mm
04:43 PM 64.2°F17.9°C 52.2°F11.2°C 65% 2.0 mph N3.2 kmh N 5.0 mph8.0 kmh 29.93 in1013.5 mb 0.00 in0.0 mm 0.00 in0.0 mm 0.40 in10.2 mm
04:44 PM 64.2°F17.9°C 52.2°F11.2°C 65% 2.0 mph N3.2 kmh N 5.0 mph8.0 kmh 29.93 in1013.5 mb 0.00 in0.0 mm 0.00 in0.0 mm 0.40 in10.2 mm
04:45 PM 64.2°F17.9°C 52.6°F11.4°C 66% 3.0 mph N4.8 kmh N 5.0 mph8.0 kmh 29.93 in1013.5 mb 0.00 in0.0 mm 0.00 in0.0 mm 0.40 in10.2 mm
04:46 PM 64.2°F17.9°C 52.6°F11.4°C 66% 3.0 mph N4.8 kmh N 5.0 mph8.0 kmh 29.93 in1013.5 mb 0.00 in0.0 mm 0.00 in0.0 mm 0.40 in10.2 mm
04:47 PM 64.2°F17.9°C 53.0°F11.7°C 67% 3.0 mph N4.8 kmh N 5.0 mph8.0 kmh 29.93 in1013.5 mb 0.00 in0.0 mm 0.00 in0.0 mm 0.40 in10.2 mm
04:48 PM 64.2°F17.9°C 53.0°F11.7°C 67% 3.0 mph N4.8 kmh N 5.0 mph8.0 kmh 29.93 in1013.5 mb 0.00 in0.0 mm 0.00 in0.0 mm 0.40 in10.2 mm
04:49 PM 64.0°F17.8°C 52.9°F11.6°C 67% 3.0 mph N4.8 kmh N 5.0 mph8.0 kmh 29.93 in1013.5 mb 0.00 in0.0 mm 0.00 in0.0 mm 0.40 in10.2 mm
04:50 PM 64.0°F17.8°C 52.9°F11.6°C 67% 3.0 mph N4.8 kmh N 5.0 mph8.0 kmh 29.94 in1013.9 mb 0.00 in0.0 mm 0.00 in0.0 mm 0.40 in10.2 mm
04:51 PM 64.0°F17.8°C 53.3°F11.8°C 68% 3.0 mph N4.8 kmh N 5.0 mph8.0 kmh 29.93 in1013.5 mb 0.00 in0.0 mm 0.00 in0.0 mm 0.40 in10.2 mm
04:52 PM 64.0°F17.8°C 53.3°F11.8°C 68% 3.0 mph N4.8 kmh N 5.0 mph8.0 kmh 29.94 in1013.9 mb 0.00 in0.0 mm 0.00 in0.0 mm 0.40 in10.2 mm
04:53 PM 63.9°F17.7°C 53.9°F12.2°C 70% 2.0 mph N3.2 kmh N 6.0 mph9.7 kmh 29.93 in1013.5 mb 0.00 in0.0 mm 0.00 in0.0 mm 0.40 in10.2 mm
04:54 PM 63.9°F17.7°C 53.9°F12.2°C 70% 2.0 mph N3.2 kmh N 6.0 mph9.7 kmh 29.93 in1013.5 mb 0.00 in0.0 mm 0.00 in0.0 mm 0.40 in10.2 mm
04:55 PM 63.7°F17.6°C 54.1°F12.3°C 71% 2.0 mph N3.2 kmh N 6.0 mph9.7 kmh 29.94 in1013.9 mb 0.00 in0.0 mm 0.00 in0.0 mm 0.40 in10.2 mm
04:56 PM 63.7°F17.6°C 54.1°F12.3°C 71% 2.0 mph N3.2 kmh N 6.0 mph9.7 kmh 29.94 in1013.9 mb 0.00 in0.0 mm 0.00 in0.0 mm 0.40 in10.2 mm
04:57 PM 63.5°F17.5°C 53.9°F12.2°C 71% 2.0 mph N3.2 kmh N 6.0 mph9.7 kmh 29.94 in1013.9 mb 0.00 in0.0 mm 0.00 in0.0 mm 0.40 in10.2 mm
04:58 PM 63.3°F17.4°C 53.8°F12.1°C 71% 2.0 mph N3.2 kmh N 6.0 mph9.7 kmh 29.94 in1013.9 mb 0.00 in0.0 mm 0.00 in0.0 mm 0.40 in10.2 mm
04:59 PM 63.3°F17.4°C 53.8°F12.1°C 71% 2.0 mph N3.2 kmh N 6.0 mph9.7 kmh 29.94 in1013.9 mb 0.00 in0.0 mm 0.00 in0.0 mm 0.40 in10.2 mm
05:00 PM 63.1°F17.3°C 53.6°F12.0°C 71% 2.0 mph N3.2 kmh N 6.0 mph9.7 kmh 29.94 in1013.9 mb 0.00 in0.0 mm 0.00 in0.0 mm 0.40 in10.2 mm
05:01 PM 63.1°F17.3°C 53.6°F12.0°C 71% 2.0 mph N3.2 kmh N 6.0 mph9.7 kmh 29.94 in1013.9 mb 0.00 in0.0 mm 0.00 in0.0 mm 0.40 in10.2 mm
05:02 PM 63.1°F17.3°C 53.6°F12.0°C 71% 2.0 mph N3.2 kmh N 6.0 mph9.7 kmh 29.94 in1013.9 mb 0.00 in0.0 mm 0.00 in0.0 mm 0.40 in10.2 mm
05:03 PM 63.1°F17.3°C 54.0°F12.2°C 72% 2.0 mph N3.2 kmh N 5.0 mph8.0 kmh 29.94 in1013.9 mb 0.00 in0.0 mm 0.00 in0.0 mm 0.40 in10.2 mm
05:04 PM 63.1°F17.3°C 54.0°F12.2°C 72% 2.0 mph N3.2 kmh N 5.0 mph8.0 kmh 29.94 in1013.9 mb 0.01 in0.3 mm 0.60 in15.2 mm 0.41 in10.4 mm
05:05 PM 63.1°F17.3°C 54.0°F12.2°C 72% 2.0 mph N3.2 kmh N 5.0 mph8.0 kmh 29.94 in1013.9 mb 0.01 in0.3 mm 0.00 in0.0 mm 0.41 in10.4 mm
05:06 PM 63.1°F17.3°C 54.0°F12.2°C 72% 2.0 mph N3.2 kmh N 5.0 mph8.0 kmh 29.94 in1013.9 mb 0.01 in0.3 mm 0.00 in0.0 mm 0.41 in10.4 mm
05:07 PM 63.1°F17.3°C 54.7°F12.6°C 74% 2.0 mph N3.2 kmh N 6.0 mph9.7 kmh 29.95 in1014.2 mb 0.02 in0.5 mm 0.60 in15.2 mm 0.42 in10.7 mm
05:08 PM 63.1°F17.3°C 54.3°F12.4°C 73% 2.0 mph NNE3.2 kmh NNE 7.0 mph11.3 kmh 29.95 in1014.2 mb 0.02 in0.5 mm 0.00 in0.0 mm 0.42 in10.7 mm
05:09 PM 62.8°F17.1°C 55.1°F12.8°C 76% 2.0 mph NNE3.2 kmh NNE 8.0 mph12.9 kmh 29.95 in1014.2 mb 0.02 in0.5 mm 0.00 in0.0 mm 0.42 in10.7 mm
05:10 PM 62.4°F16.9°C 55.1°F12.8°C 77% 2.0 mph NNE3.2 kmh NNE 10.0 mph16.1 kmh 29.95 in1014.2 mb 0.02 in0.5 mm 0.00 in0.0 mm 0.42 in10.7 mm
05:11 PM 62.1°F16.7°C 54.8°F12.7°C 77% 2.0 mph NNE3.2 kmh NNE 10.0 mph16.1 kmh 29.95 in1014.2 mb 0.03 in0.8 mm 0.60 in15.2 mm 0.43 in10.9 mm
05:12 PM 61.5°F16.4°C 54.6°F12.6°C 78% 2.0 mph NNE3.2 kmh NNE 10.0 mph16.1 kmh 29.95 in1014.2 mb 0.04 in1.0 mm 0.60 in15.2 mm 0.44 in11.2 mm
05:13 PM 61.3°F16.3°C 54.8°F12.7°C 79% 3.0 mph NNE4.8 kmh NNE 10.0 mph16.1 kmh 29.94 in1013.9 mb 0.05 in1.3 mm 0.60 in15.2 mm 0.45 in11.4 mm
05:14 PM 61.2°F16.2°C 54.9°F12.7°C 80% 3.0 mph NNE4.8 kmh NNE 10.0 mph16.1 kmh 29.94 in1013.9 mb 0.05 in1.3 mm 0.00 in0.0 mm 0.45 in11.4 mm
05:15 PM 61.0°F16.1°C 55.4°F13.0°C 82% 3.0 mph NE4.8 kmh NE 10.0 mph16.1 kmh 29.94 in1013.9 mb 0.05 in1.3 mm 0.00 in0.0 mm 0.45 in11.4 mm
05:16 PM 60.8°F16.0°C 55.3°F12.9°C 82% 3.0 mph NE4.8 kmh NE 10.0 mph16.1 kmh 29.94 in1013.9 mb 0.05 in1.3 mm 0.00 in0.0 mm 0.45 in11.4 mm
05:17 PM 60.6°F15.9°C 55.1°F12.8°C 82% 3.0 mph NE4.8 kmh NE 10.0 mph16.1 kmh 29.94 in1013.9 mb 0.06 in1.5 mm 0.60 in15.2 mm 0.46 in11.7 mm
05:18 PM 60.6°F15.9°C 55.4°F13.0°C 83% 4.0 mph NE6.4 kmh NE 10.0 mph16.1 kmh 29.94 in1013.9 mb 0.06 in1.5 mm 0.00 in0.0 mm 0.46 in11.7 mm
05:19 PM 60.4°F15.8°C 55.6°F13.1°C 84% 4.0 mph NE6.4 kmh NE 10.0 mph16.1 kmh 29.94 in1013.9 mb 0.06 in1.5 mm 0.00 in0.0 mm 0.46 in11.7 mm
05:20 PM 60.3°F15.7°C 55.1°F12.8°C 83% 4.0 mph NE6.4 kmh NE 10.0 mph16.1 kmh 29.94 in1013.9 mb 0.06 in1.5 mm 0.00 in0.0 mm 0.46 in11.7 mm
05:21 PM 60.1°F15.6°C 55.2°F12.9°C 84% 4.0 mph NE6.4 kmh NE 9.0 mph14.5 kmh 29.94 in1013.9 mb 0.06 in1.5 mm 0.00 in0.0 mm 0.46 in11.7 mm
05:22 PM 59.9°F15.5°C 55.1°F12.8°C 84% 4.0 mph NE6.4 kmh NE 9.0 mph14.5 kmh 29.94 in1013.9 mb 0.07 in1.8 mm 0.60 in15.2 mm 0.47 in11.9 mm
05:23 PM 59.9°F15.5°C 55.1°F12.8°C 84% 4.0 mph NE6.4 kmh NE 9.0 mph14.5 kmh 29.94 in1013.9 mb 0.07 in1.8 mm 0.00 in0.0 mm 0.47 in11.9 mm
05:24 PM 59.9°F15.5°C 55.4°F13.0°C 85% 4.0 mph NE6.4 kmh NE 9.0 mph14.5 kmh 29.94 in1013.9 mb 0.07 in1.8 mm 0.00 in0.0 mm 0.47 in11.9 mm
05:25 PM 59.7°F15.4°C 55.2°F12.9°C 85% 4.0 mph NE6.4 kmh NE 9.0 mph14.5 kmh 29.94 in1013.9 mb 0.07 in1.8 mm 0.00 in0.0 mm 0.47 in11.9 mm
05:26 PM 59.7°F15.4°C 54.9°F12.7°C 84% 3.0 mph NE4.8 kmh NE 9.0 mph14.5 kmh 29.94 in1013.9 mb 0.07 in1.8 mm 0.00 in0.0 mm 0.47 in11.9 mm
05:27 PM 59.7°F15.4°C 54.5°F12.5°C 83% 3.0 mph NE4.8 kmh NE 9.0 mph14.5 kmh 29.94 in1013.9 mb 0.07 in1.8 mm 0.00 in0.0 mm 0.47 in11.9 mm
05:28 PM 59.7°F15.4°C 54.5°F12.5°C 83% 3.0 mph NE4.8 kmh NE 9.0 mph14.5 kmh 29.94 in1013.9 mb 0.07 in1.8 mm 0.00 in0.0 mm 0.47 in11.9 mm
05:29 PM 59.9°F15.5°C 54.7°F12.6°C 83% 3.0 mph NE4.8 kmh NE 9.0 mph14.5 kmh 29.94 in1013.9 mb 0.07 in1.8 mm 0.00 in0.0 mm 0.47 in11.9 mm
05:30 PM 60.1°F15.6°C 55.2°F12.9°C 84% 3.0 mph NE4.8 kmh NE 6.0 mph9.7 kmh 29.94 in1013.9 mb 0.07 in1.8 mm 0.00 in0.0 mm 0.47 in11.9 mm
05:31 PM 60.3°F15.7°C 55.4°F13.0°C 84% 3.0 mph NE4.8 kmh NE 5.0 mph8.0 kmh 29.94 in1013.9 mb 0.07 in1.8 mm 0.00 in0.0 mm 0.47 in11.9 mm
05:32 PM 60.3°F15.7°C 55.1°F12.8°C 83% 3.0 mph NE4.8 kmh NE 5.0 mph8.0 kmh 29.93 in1013.5 mb 0.07 in1.8 mm 0.00 in0.0 mm 0.47 in11.9 mm
05:33 PM 60.4°F15.8°C 54.6°F12.6°C 81% 3.0 mph NE4.8 kmh NE 5.0 mph8.0 kmh 29.94 in1013.9 mb 0.07 in1.8 mm 0.00 in0.0 mm 0.47 in11.9 mm
05:34 PM 60.4°F15.8°C 54.6°F12.6°C 81% 3.0 mph NE4.8 kmh NE 5.0 mph8.0 kmh 29.94 in1013.9 mb 0.07 in1.8 mm 0.00 in0.0 mm 0.47 in11.9 mm
05:35 PM 60.6°F15.9°C 55.1°F12.8°C 82% 3.0 mph NE4.8 kmh NE 5.0 mph8.0 kmh 29.94 in1013.9 mb 0.07 in1.8 mm 0.00 in0.0 mm 0.47 in11.9 mm
05:36 PM 61.0°F16.1°C 55.8°F13.2°C 83% 3.0 mph NE4.8 kmh NE 5.0 mph8.0 kmh 29.94 in1013.9 mb 0.07 in1.8 mm 0.00 in0.0 mm 0.47 in11.9 mm
05:37 PM 61.0°F16.1°C 55.8°F13.2°C 83% 3.0 mph NE4.8 kmh NE 5.0 mph8.0 kmh 29.94 in1013.9 mb 0.07 in1.8 mm 0.00 in0.0 mm 0.47 in11.9 mm
05:38 PM 61.2°F16.2°C 56.3°F13.5°C 84% 2.0 mph NE3.2 kmh NE 5.0 mph8.0 kmh 29.94 in1013.9 mb 0.07 in1.8 mm 0.00 in0.0 mm 0.47 in11.9 mm
05:39 PM 61.3°F16.3°C 56.5°F13.6°C 84% 2.0 mph NE3.2 kmh NE 5.0 mph8.0 kmh 29.94 in1013.9 mb 0.07 in1.8 mm 0.00 in0.0 mm 0.47 in11.9 mm
05:40 PM 61.3°F16.3°C 56.5°F13.6°C 84% 2.0 mph NE3.2 kmh NE 5.0 mph8.0 kmh 29.94 in1013.9 mb 0.07 in1.8 mm 0.00 in0.0 mm 0.47 in11.9 mm
05:41 PM 61.5°F16.4°C 56.6°F13.7°C 84% 2.0 mph NE3.2 kmh NE 5.0 mph8.0 kmh 29.94 in1013.9 mb 0.07 in1.8 mm 0.00 in0.0 mm 0.47 in11.9 mm
05:42 PM 61.5°F16.4°C 57.0°F13.9°C 85% 2.0 mph NE3.2 kmh NE 5.0 mph8.0 kmh 29.94 in1013.9 mb 0.07 in1.8 mm 0.00 in0.0 mm 0.47 in11.9 mm
05:43 PM 61.7°F16.5°C 56.8°F13.8°C 84% 2.0 mph NE3.2 kmh NE 5.0 mph8.0 kmh 29.94 in1013.9 mb 0.07 in1.8 mm 0.00 in0.0 mm 0.47 in11.9 mm
05:44 PM 61.9°F16.6°C 57.0°F13.9°C 84% 2.0 mph NNE3.2 kmh NNE 5.0 mph8.0 kmh 29.94 in1013.9 mb 0.07 in1.8 mm 0.00 in0.0 mm 0.47 in11.9 mm
05:45 PM 62.1°F16.7°C 57.2°F14.0°C 84% 2.0 mph NNE3.2 kmh NNE 6.0 mph9.7 kmh 29.94 in1013.9 mb 0.07 in1.8 mm 0.00 in0.0 mm 0.47 in11.9 mm
05:46 PM 62.1°F16.7°C 56.5°F13.6°C 82% 2.0 mph NNE3.2 kmh NNE 7.0 mph11.3 kmh 29.94 in1013.9 mb 0.07 in1.8 mm 0.00 in0.0 mm 0.47 in11.9 mm
05:47 PM 62.1°F16.7°C 56.5°F13.6°C 82% 2.0 mph NNE3.2 kmh NNE 7.0 mph11.3 kmh 29.94 in1013.9 mb 0.07 in1.8 mm 0.00 in0.0 mm 0.47 in11.9 mm
05:48 PM 62.1°F16.7°C 56.2°F13.4°C 81% 2.0 mph N3.2 kmh N 7.0 mph11.3 kmh 29.94 in1013.9 mb 0.07 in1.8 mm 0.00 in0.0 mm 0.47 in11.9 mm
05:49 PM 62.2°F16.8°C 56.7°F13.7°C 82% 2.0 mph N3.2 kmh N 7.0 mph11.3 kmh 29.94 in1013.9 mb 0.07 in1.8 mm 0.00 in0.0 mm 0.47 in11.9 mm
05:50 PM 62.4°F16.9°C 56.9°F13.8°C 82% 2.0 mph N3.2 kmh N 7.0 mph11.3 kmh 29.94 in1013.9 mb 0.07 in1.8 mm 0.00 in0.0 mm 0.47 in11.9 mm
05:51 PM 62.4°F16.9°C 56.5°F13.6°C 81% 2.0 mph NNE3.2 kmh NNE 7.0 mph11.3 kmh 29.94 in1013.9 mb 0.07 in1.8 mm 0.00 in0.0 mm 0.47 in11.9 mm
05:52 PM 62.6°F17.0°C 57.0°F13.9°C 82% 2.0 mph NNE3.2 kmh NNE 7.0 mph11.3 kmh 29.94 in1013.9 mb 0.07 in1.8 mm 0.00 in0.0 mm 0.47 in11.9 mm
05:53 PM 62.4°F16.9°C 56.2°F13.4°C 80% 2.0 mph NNE3.2 kmh NNE 7.0 mph11.3 kmh 29.94 in1013.9 mb 0.07 in1.8 mm 0.00 in0.0 mm 0.47 in11.9 mm
05:54 PM 62.6°F17.0°C 56.7°F13.7°C 81% 2.0 mph NNE3.2 kmh NNE 7.0 mph11.3 kmh 29.94 in1013.9 mb 0.07 in1.8 mm 0.00 in0.0 mm 0.47 in11.9 mm
05:55 PM 62.6°F17.0°C 56.7°F13.7°C 81% 3.0 mph NNE4.8 kmh NNE 7.0 mph11.3 kmh 29.94 in1013.9 mb 0.07 in1.8 mm 0.00 in0.0 mm 0.47 in11.9 mm
05:56 PM 62.6°F17.0°C 56.7°F13.7°C 81% 3.0 mph NNE4.8 kmh NNE 7.0 mph11.3 kmh 29.94 in1013.9 mb 0.07 in1.8 mm 0.00 in0.0 mm 0.47 in11.9 mm
05:57 PM 62.8°F17.1°C 56.9°F13.8°C 81% 3.0 mph NNE4.8 kmh NNE 7.0 mph11.3 kmh 29.94 in1013.9 mb 0.07 in1.8 mm 0.00 in0.0 mm 0.47 in11.9 mm
05:58 PM 62.8°F17.1°C 56.5°F13.6°C 80% 3.0 mph NNE4.8 kmh NNE 7.0 mph11.3 kmh 29.94 in1013.9 mb 0.07 in1.8 mm 0.00 in0.0 mm 0.47 in11.9 mm
05:59 PM 62.8°F17.1°C 56.5°F13.6°C 80% 2.0 mph NNE3.2 kmh NNE 7.0 mph11.3 kmh 29.94 in1013.9 mb 0.07 in1.8 mm 0.00 in0.0 mm 0.47 in11.9 mm
06:00 PM 63.0°F17.2°C 56.7°F13.7°C 80% 2.0 mph NNE3.2 kmh NNE 7.0 mph11.3 kmh 29.94 in1013.9 mb 0.07 in1.8 mm 0.00 in0.0 mm 0.47 in11.9 mm
06:01 PM 63.0°F17.2°C 56.7°F13.7°C 80% 2.0 mph NNE3.2 kmh NNE 7.0 mph11.3 kmh 29.94 in1013.9 mb 0.07 in1.8 mm 0.00 in0.0 mm 0.47 in11.9 mm
06:02 PM 63.0°F17.2°C 56.3°F13.5°C 79% 2.0 mph NNE3.2 kmh NNE 7.0 mph11.3 kmh 29.94 in1013.9 mb 0.07 in1.8 mm 0.00 in0.0 mm 0.47 in11.9 mm
06:03 PM 63.1°F17.3°C 56.9°F13.8°C 80% 2.0 mph N3.2 kmh N 3.0 mph4.8 kmh 29.94 in1013.9 mb 0.06 in1.5 mm 0.00 in0.0 mm 0.47 in11.9 mm
06:04 PM 63.1°F17.3°C 56.5°F13.6°C 79% 2.0 mph N3.2 kmh N 3.0 mph4.8 kmh 29.94 in1013.9 mb 0.06 in1.5 mm 0.00 in0.0 mm 0.47 in11.9 mm
06:05 PM 63.1°F17.3°C 56.5°F13.6°C 79% 2.0 mph N3.2 kmh N 3.0 mph4.8 kmh 29.94 in1013.9 mb 0.06 in1.5 mm 0.00 in0.0 mm 0.47 in11.9 mm
06:06 PM 63.3°F17.4°C 56.7°F13.7°C 79% 1.0 mph N1.6 kmh N 4.0 mph6.4 kmh 29.94 in1013.9 mb 0.06 in1.5 mm 0.00 in0.0 mm 0.47 in11.9 mm
06:07 PM 63.1°F17.3°C 55.4°F13.0°C 76% 1.0 mph NNE1.6 kmh NNE 4.0 mph6.4 kmh 29.94 in1013.9 mb 0.05 in1.3 mm 0.00 in0.0 mm 0.47 in11.9 mm
06:08 PM 63.3°F17.4°C 55.6°F13.1°C 76% 1.0 mph NNE1.6 kmh NNE 4.0 mph6.4 kmh 29.94 in1013.9 mb 0.05 in1.3 mm 0.00 in0.0 mm 0.47 in11.9 mm
06:09 PM 63.3°F17.4°C 56.0°F13.3°C 77% 1.0 mph NNE1.6 kmh NNE 4.0 mph6.4 kmh 29.94 in1013.9 mb 0.05 in1.3 mm 0.00 in0.0 mm 0.47 in11.9 mm
06:10 PM 63.5°F17.5°C 55.1°F12.8°C 74% 1.0 mph NNE1.6 kmh NNE 4.0 mph6.4 kmh 29.94 in1013.9 mb 0.04 in1.0 mm 0.00 in0.0 mm 0.47 in11.9 mm
06:11 PM 63.5°F17.5°C 54.7°F12.6°C 73% 1.0 mph NNE1.6 kmh NNE 4.0 mph6.4 kmh 29.94 in1013.9 mb 0.03 in0.8 mm 0.00 in0.0 mm 0.47 in11.9 mm
06:12 PM 63.7°F17.6°C 54.9°F12.7°C 73% 1.0 mph NNE1.6 kmh NNE 4.0 mph6.4 kmh 29.94 in1013.9 mb 0.02 in0.5 mm 0.00 in0.0 mm 0.47 in11.9 mm
06:13 PM 63.7°F17.6°C 55.2°F12.9°C 74% 1.0 mph NNE1.6 kmh NNE 4.0 mph6.4 kmh 29.94 in1013.9 mb 0.02 in0.5 mm 0.00 in0.0 mm 0.47 in11.9 mm
06:14 PM 63.7°F17.6°C 54.9°F12.7°C 73% 1.0 mph NNE1.6 kmh NNE 4.0 mph6.4 kmh 29.94 in1013.9 mb 0.02 in0.5 mm 0.00 in0.0 mm 0.47 in11.9 mm
06:15 PM 63.7°F17.6°C 54.5°F12.5°C 72% 1.0 mph NNE1.6 kmh NNE 4.0 mph6.4 kmh 29.94 in1013.9 mb 0.02 in0.5 mm 0.00 in0.0 mm 0.47 in11.9 mm
06:16 PM 63.7°F17.6°C 54.1°F12.3°C 71% 1.0 mph NNE1.6 kmh NNE 5.0 mph8.0 kmh 29.94 in1013.9 mb 0.02 in0.5 mm 0.00 in0.0 mm 0.47 in11.9 mm
06:17 PM 63.7°F17.6°C 54.1°F12.3°C 71% 1.0 mph NNE1.6 kmh NNE 5.0 mph8.0 kmh 29.94 in1013.9 mb 0.01 in0.3 mm 0.00 in0.0 mm 0.47 in11.9 mm
06:18 PM 63.9°F17.7°C 54.7°F12.6°C 72% 1.0 mph NNE1.6 kmh NNE 5.0 mph8.0 kmh 29.94 in1013.9 mb 0.01 in0.3 mm 0.00 in0.0 mm 0.47 in11.9 mm
06:19 PM 64.0°F17.8°C 55.2°F12.9°C 73% 1.0 mph NNE1.6 kmh NNE 5.0 mph8.0 kmh 29.94 in1013.9 mb 0.01 in0.3 mm 0.00 in0.0 mm 0.47 in11.9 mm
06:20 PM 64.0°F17.8°C 54.4°F12.4°C 71% 1.0 mph NNE1.6 kmh NNE 5.0 mph8.0 kmh 29.94 in1013.9 mb 0.01 in0.3 mm 0.00 in0.0 mm 0.47 in11.9 mm
06:21 PM 64.0°F17.8°C 54.4°F12.4°C 71% 1.0 mph NNE1.6 kmh NNE 5.0 mph8.0 kmh 29.94 in1013.9 mb 0.00 in0.0 mm 0.00 in0.0 mm 0.47 in11.9 mm
06:22 PM 64.0°F17.8°C 53.7°F12.1°C 69% 1.0 mph NE1.6 kmh NE 5.0 mph8.0 kmh 29.94 in1013.9 mb 0.00 in0.0 mm 0.00 in0.0 mm 0.47 in11.9 mm
06:23 PM 63.9°F17.7°C 53.9°F12.2°C 70% 1.0 mph NE1.6 kmh NE 5.0 mph8.0 kmh 29.94 in1013.9 mb 0.00 in0.0 mm 0.00 in0.0 mm 0.47 in11.9 mm
06:24 PM 63.9°F17.7°C 53.5°F11.9°C 69% 1.0 mph NE1.6 kmh NE 5.0 mph8.0 kmh 29.94 in1013.9 mb 0.00 in0.0 mm 0.00 in0.0 mm 0.47 in11.9 mm
06:25 PM 63.9°F17.7°C 53.5°F11.9°C 69% 1.0 mph NE1.6 kmh NE 5.0 mph8.0 kmh 29.94 in1013.9 mb 0.00 in0.0 mm 0.00 in0.0 mm 0.47 in11.9 mm
06:26 PM 63.9°F17.7°C 53.5°F11.9°C 69% 2.0 mph NE3.2 kmh NE 5.0 mph8.0 kmh 29.94 in1013.9 mb 0.00 in0.0 mm 0.00 in0.0 mm 0.47 in11.9 mm
06:27 PM 63.9°F17.7°C 53.9°F12.2°C 70% 2.0 mph NE3.2 kmh NE 5.0 mph8.0 kmh 29.94 in1013.9 mb 0.00 in0.0 mm 0.00 in0.0 mm 0.47 in11.9 mm
06:28 PM 64.0°F17.8°C 54.1°F12.3°C 70% 2.0 mph NE3.2 kmh NE 5.0 mph8.0 kmh 29.94 in1013.9 mb 0.00 in0.0 mm 0.00 in0.0 mm 0.47 in11.9 mm
06:29 PM 64.0°F17.8°C 54.1°F12.3°C 70% 2.0 mph NE3.2 kmh NE 5.0 mph8.0 kmh 29.94 in1013.9 mb 0.00 in0.0 mm 0.00 in0.0 mm 0.47 in11.9 mm
06:30 PM 64.0°F17.8°C 53.7°F12.1°C 69% 2.0 mph NE3.2 kmh NE 5.0 mph8.0 kmh 29.94 in1013.9 mb 0.00 in0.0 mm 0.00 in0.0 mm 0.47 in11.9 mm
06:31 PM 64.2°F17.9°C 54.2°F12.3°C 70% 2.0 mph NE3.2 kmh NE 5.0 mph8.0 kmh 29.94 in1013.9 mb 0.00 in0.0 mm 0.00 in0.0 mm 0.47 in11.9 mm
06:32 PM 64.2°F17.9°C 54.2°F12.3°C 70% 2.0 mph NE3.2 kmh NE 5.0 mph8.0 kmh 29.94 in1013.9 mb 0.00 in0.0 mm 0.00 in0.0 mm 0.47 in11.9 mm
06:33 PM 64.2°F17.9°C 53.0°F11.7°C 67% 2.0 mph NE3.2 kmh NE 5.0 mph8.0 kmh 29.94 in1013.9 mb 0.00 in0.0 mm 0.00 in0.0 mm 0.47 in11.9 mm
06:34 PM 64.2°F17.9°C 53.8°F12.1°C 69% 2.0 mph NNE3.2 kmh NNE 5.0 mph8.0 kmh 29.94 in1013.9 mb 0.00 in0.0 mm 0.00 in0.0 mm 0.47 in11.9 mm
06:35 PM 64.4°F18.0°C 54.0°F12.2°C 69% 2.0 mph NNE3.2 kmh NNE 5.0 mph8.0 kmh 29.94 in1013.9 mb 0.00 in0.0 mm 0.00 in0.0 mm 0.47 in11.9 mm
06:36 PM 64.4°F18.0°C 54.0°F12.2°C 69% 2.0 mph NNE3.2 kmh NNE 5.0 mph8.0 kmh 29.94 in1013.9 mb 0.00 in0.0 mm 0.00 in0.0 mm 0.47 in11.9 mm
06:37 PM 64.4°F18.0°C 54.0°F12.2°C 69% 2.0 mph NNE3.2 kmh NNE 5.0 mph8.0 kmh 29.94 in1013.9 mb 0.00 in0.0 mm 0.00 in0.0 mm 0.47 in11.9 mm
06:38 PM 64.6°F18.1°C 54.2°F12.3°C 69% 2.0 mph NNE3.2 kmh NNE 5.0 mph8.0 kmh 29.94 in1013.9 mb 0.00 in0.0 mm 0.00 in0.0 mm 0.47 in11.9 mm
06:39 PM 64.6°F18.1°C 53.8°F12.1°C 68% 2.0 mph NNE3.2 kmh NNE 5.0 mph8.0 kmh 29.94 in1013.9 mb 0.00 in0.0 mm 0.00 in0.0 mm 0.47 in11.9 mm
06:40 PM 64.6°F18.1°C 53.8°F12.1°C 68% 2.0 mph NNE3.2 kmh NNE 5.0 mph8.0 kmh 29.94 in1013.9 mb 0.00 in0.0 mm 0.00 in0.0 mm 0.47 in11.9 mm
06:41 PM 64.6°F18.1°C 54.2°F12.3°C 69% 2.0 mph NNE3.2 kmh NNE 5.0 mph8.0 kmh 29.94 in1013.9 mb 0.00 in0.0 mm 0.00 in0.0 mm 0.47 in11.9 mm
06:42 PM 64.6°F18.1°C 54.2°F12.3°C 69% 2.0 mph NNE3.2 kmh NNE 5.0 mph8.0 kmh 29.95 in1014.2 mb 0.00 in0.0 mm 0.00 in0.0 mm 0.47 in11.9 mm
06:43 PM 64.6°F18.1°C 54.2°F12.3°C 69% 2.0 mph NNE3.2 kmh NNE 4.0 mph6.4 kmh 29.95 in1014.2 mb 0.00 in0.0 mm 0.00 in0.0 mm 0.47 in11.9 mm
06:44 PM 64.6°F18.1°C 53.8°F12.1°C 68% 2.0 mph NNE3.2 kmh NNE 4.0 mph6.4 kmh 29.95 in1014.2 mb 0.00 in0.0 mm 0.00 in0.0 mm 0.47 in11.9 mm
06:45 PM 64.6°F18.1°C 54.2°F12.3°C 69% 2.0 mph NNE3.2 kmh NNE 4.0 mph6.4 kmh 29.95 in1014.2 mb 0.00 in0.0 mm 0.00 in0.0 mm 0.47 in11.9 mm
06:46 PM 64.6°F18.1°C 53.8°F12.1°C 68% 2.0 mph NNE3.2 kmh NNE 4.0 mph6.4 kmh 29.95 in1014.2 mb 0.00 in0.0 mm 0.00 in0.0 mm 0.47 in11.9 mm
06:47 PM 64.6°F18.1°C 54.2°F12.3°C 69% 2.0 mph NNE3.2 kmh NNE 4.0 mph6.4 kmh 29.95 in1014.2 mb 0.00 in0.0 mm 0.00 in0.0 mm 0.47 in11.9 mm
06:48 PM 64.6°F18.1°C 54.2°F12.3°C 69% 2.0 mph NNE3.2 kmh NNE 4.0 mph6.4 kmh 29.95 in1014.2 mb 0.00 in0.0 mm 0.00 in0.0 mm 0.47 in11.9 mm
06:49 PM 64.6°F18.1°C 54.6°F12.6°C 70% 2.0 mph NNE3.2 kmh NNE 3.0 mph4.8 kmh 29.95 in1014.2 mb 0.00 in0.0 mm 0.00 in0.0 mm 0.47 in11.9 mm
06:50 PM 64.6°F18.1°C 54.6°F12.6°C 70% 2.0 mph NNE3.2 kmh NNE 3.0 mph4.8 kmh 29.95 in1014.2 mb 0.00 in0.0 mm 0.00 in0.0 mm 0.47 in11.9 mm
06:51 PM 64.6°F18.1°C 55.0°F12.8°C 71% 2.0 mph NNE3.2 kmh NNE 3.0 mph4.8 kmh 29.95 in1014.2 mb 0.00 in0.0 mm 0.00 in0.0 mm 0.47 in11.9 mm
06:52 PM 64.4°F18.0°C 54.4°F12.4°C 70% 1.0 mph NNE1.6 kmh NNE 4.0 mph6.4 kmh 29.95 in1014.2 mb 0.00 in0.0 mm 0.00 in0.0 mm 0.47 in11.9 mm
06:53 PM 64.4°F18.0°C 54.4°F12.4°C 70% 1.0 mph NNE1.6 kmh NNE 4.0 mph6.4 kmh 29.95 in1014.2 mb 0.00 in0.0 mm 0.00 in0.0 mm 0.47 in11.9 mm
06:54 PM 64.4°F18.0°C 54.4°F12.4°C 70% 1.0 mph NE1.6 kmh NE 4.0 mph6.4 kmh 29.95 in1014.2 mb 0.00 in0.0 mm 0.00 in0.0 mm 0.47 in11.9 mm
06:55 PM 64.4°F18.0°C 54.8°F12.7°C 71% 1.0 mph NE1.6 kmh NE 4.0 mph6.4 kmh 29.95 in1014.2 mb 0.00 in0.0 mm 0.00 in0.0 mm 0.47 in11.9 mm
06:56 PM 64.4°F18.0°C 54.8°F12.7°C 71% 1.0 mph NE1.6 kmh NE 4.0 mph6.4 kmh 29.95 in1014.2 mb 0.00 in0.0 mm 0.00 in0.0 mm 0.47 in11.9 mm
06:57 PM 64.4°F18.0°C 54.4°F12.4°C 70% 1.0 mph NE1.6 kmh NE 4.0 mph6.4 kmh 29.95 in1014.2 mb 0.00 in0.0 mm 0.00 in0.0 mm 0.47 in11.9 mm
06:58 PM 64.2°F17.9°C 54.2°F12.3°C 70% 1.0 mph NE1.6 kmh NE 4.0 mph6.4 kmh 29.95 in1014.2 mb 0.00 in0.0 mm 0.00 in0.0 mm 0.47 in11.9 mm
06:59 PM 64.2°F17.9°C 54.2°F12.3°C 70% 1.0 mph NE1.6 kmh NE 4.0 mph6.4 kmh 29.95 in1014.2 mb 0.00 in0.0 mm 0.00 in0.0 mm 0.47 in11.9 mm
07:00 PM 64.2°F17.9°C 54.6°F12.6°C 71% 1.0 mph NE1.6 kmh NE 4.0 mph6.4 kmh 29.95 in1014.2 mb 0.00 in0.0 mm 0.00 in0.0 mm 0.47 in11.9 mm
07:01 PM 64.2°F17.9°C 54.6°F12.6°C 71% 1.0 mph NE1.6 kmh NE 4.0 mph6.4 kmh 29.95 in1014.2 mb 0.00 in0.0 mm 0.00 in0.0 mm 0.47 in11.9 mm
07:02 PM 64.2°F17.9°C 54.6°F12.6°C 71% 1.0 mph NNE1.6 kmh NNE 3.0 mph4.8 kmh 29.95 in1014.2 mb 0.00 in0.0 mm 0.00 in0.0 mm 0.47 in11.9 mm
07:03 PM 64.2°F17.9°C 54.6°F12.6°C 71% 1.0 mph NNE1.6 kmh NNE 3.0 mph4.8 kmh 29.95 in1014.2 mb 0.00 in0.0 mm 0.00 in0.0 mm 0.47 in11.9 mm
07:04 PM 64.2°F17.9°C 54.6°F12.6°C 71% 1.0 mph NNE1.6 kmh NNE 3.0 mph4.8 kmh 29.95 in1014.2 mb 0.00 in0.0 mm 0.00 in0.0 mm 0.47 in11.9 mm
07:05 PM 64.0°F17.8°C 54.4°F12.4°C 71% 1.0 mph NNE1.6 kmh NNE 3.0 mph4.8 kmh 29.95 in1014.2 mb 0.00 in0.0 mm 0.00 in0.0 mm 0.47 in11.9 mm
07:06 PM 64.0°F17.8°C 54.8°F12.7°C 72% 1.0 mph NNE1.6 kmh NNE 3.0 mph4.8 kmh 29.95 in1014.2 mb 0.00 in0.0 mm 0.00 in0.0 mm 0.47 in11.9 mm
07:07 PM 63.9°F17.7°C 54.7°F12.6°C 72% 1.0 mph NNE1.6 kmh NNE 3.0 mph4.8 kmh 29.95 in1014.2 mb 0.00 in0.0 mm 0.00 in0.0 mm 0.47 in11.9 mm
07:08 PM 63.9°F17.7°C 54.7°F12.6°C 72% 1.0 mph NNE1.6 kmh NNE 2.0 mph3.2 kmh 29.95 in1014.2 mb 0.00 in0.0 mm 0.00 in0.0 mm 0.47 in11.9 mm
07:09 PM 63.7°F17.6°C 54.5°F12.5°C 72% 1.0 mph NNE1.6 kmh NNE 2.0 mph3.2 kmh 29.95 in1014.2 mb 0.00 in0.0 mm 0.00 in0.0 mm 0.47 in11.9 mm
07:10 PM 63.7°F17.6°C 54.5°F12.5°C 72% 1.0 mph NNE1.6 kmh NNE 2.0 mph3.2 kmh 29.95 in1014.2 mb 0.00 in0.0 mm 0.00 in0.0 mm 0.47 in11.9 mm
07:11 PM 63.5°F17.5°C 54.7°F12.6°C 73% 1.0 mph NNE1.6 kmh NNE 2.0 mph3.2 kmh 29.95 in1014.2 mb 0.00 in0.0 mm 0.00 in0.0 mm 0.47 in11.9 mm
07:12 PM 63.3°F17.4°C 54.5°F12.5°C 73% 1.0 mph NNE1.6 kmh NNE 2.0 mph3.2 kmh 29.95 in1014.2 mb 0.00 in0.0 mm 0.00 in0.0 mm 0.47 in11.9 mm
07:13 PM 63.3°F17.4°C 54.5°F12.5°C 73% Calm Calm 2.0 mph3.2 kmh 29.95 in1014.2 mb 0.00 in0.0 mm 0.00 in0.0 mm 0.47 in11.9 mm
07:14 PM 63.3°F17.4°C 54.9°F12.7°C 74% Calm Calm 2.0 mph3.2 kmh 29.95 in1014.2 mb 0.00 in0.0 mm 0.00 in0.0 mm 0.47 in11.9 mm
07:15 PM 63.1°F17.3°C 54.7°F12.6°C 74% Calm Calm 2.0 mph3.2 kmh 29.96 in1014.6 mb 0.00 in0.0 mm 0.00 in0.0 mm 0.47 in11.9 mm
07:16 PM 63.1°F17.3°C 54.7°F12.6°C 74% Calm Calm 2.0 mph3.2 kmh 29.96 in1014.6 mb 0.00 in0.0 mm 0.00 in0.0 mm 0.47 in11.9 mm
07:17 PM 63.0°F17.2°C 54.5°F12.5°C 74% Calm Calm 2.0 mph3.2 kmh 29.96 in1014.6 mb 0.00 in0.0 mm 0.00 in0.0 mm 0.47 in11.9 mm
07:18 PM 63.0°F17.2°C 54.9°F12.7°C 75% Calm Calm 2.0 mph3.2 kmh 29.96 in1014.6 mb 0.00 in0.0 mm 0.00 in0.0 mm 0.47 in11.9 mm
07:19 PM 62.8°F17.1°C 54.7°F12.6°C 75% Calm Calm 2.0 mph3.2 kmh 29.96 in1014.6 mb 0.00 in0.0 mm 0.00 in0.0 mm 0.47 in11.9 mm
07:20 PM 62.8°F17.1°C 54.7°F12.6°C 75% Calm Calm 2.0 mph3.2 kmh 29.96 in1014.6 mb 0.00 in0.0 mm 0.00 in0.0 mm 0.47 in11.9 mm
07:21 PM 62.8°F17.1°C 54.7°F12.6°C 75% Calm Calm 2.0 mph3.2 kmh 29.96 in1014.6 mb 0.00 in0.0 mm 0.00 in0.0 mm 0.47 in11.9 mm
07:22 PM 62.8°F17.1°C 55.1°F12.8°C 76% Calm Calm 2.0 mph3.2 kmh 29.96 in1014.6 mb 0.00 in0.0 mm 0.00 in0.0 mm 0.47 in11.9 mm
07:23 PM 62.8°F17.1°C 55.1°F12.8°C 76% Calm Calm 2.0 mph3.2 kmh 29.96 in1014.6 mb 0.00 in0.0 mm 0.00 in0.0 mm 0.47 in11.9 mm
07:24 PM 62.6°F17.0°C 54.9°F12.7°C 76% Calm Calm 2.0 mph3.2 kmh 29.96 in1014.6 mb 0.00 in0.0 mm 0.00 in0.0 mm 0.47 in11.9 mm
07:25 PM 62.6°F17.0°C 54.9°F12.7°C 76% Calm Calm 2.0 mph3.2 kmh 29.96 in1014.6 mb 0.00 in0.0 mm 0.00 in0.0 mm 0.47 in11.9 mm
07:26 PM 62.4°F16.9°C 54.8°F12.7°C 76% Calm Calm 2.0 mph3.2 kmh 29.96 in1014.6 mb 0.00 in0.0 mm 0.00 in0.0 mm 0.47 in11.9 mm
07:27 PM 62.4°F16.9°C 54.8°F12.7°C 76% Calm Calm -- 29.96 in1014.6 mb 0.00 in0.0 mm 0.00 in0.0 mm 0.47 in11.9 mm
07:28 PM 62.4°F16.9°C 54.8°F12.7°C 76% Calm Calm -- 29.96 in1014.6 mb 0.00 in0.0 mm 0.00 in0.0 mm 0.47 in11.9 mm
07:29 PM 62.4°F16.9°C 54.8°F12.7°C 76% Calm Calm -- 29.96 in1014.6 mb 0.00 in0.0 mm 0.00 in0.0 mm 0.47 in11.9 mm
07:30 PM 62.2°F16.8°C 54.6°F12.6°C 76% Calm Calm -- 29.96 in1014.6 mb 0.00 in0.0 mm 0.00 in0.0 mm 0.47 in11.9 mm
07:31 PM 62.2°F16.8°C 54.6°F12.6°C 76% Calm Calm -- 29.96 in1014.6 mb 0.00 in0.0 mm 0.00 in0.0 mm 0.47 in11.9 mm
07:32 PM 62.2°F16.8°C 54.6°F12.6°C 76% Calm Calm -- 29.96 in1014.6 mb 0.00 in0.0 mm 0.00 in0.0 mm 0.47 in11.9 mm
07:33 PM 62.2°F16.8°C 54.6°F12.6°C 76% Calm Calm -- 29.96 in1014.6 mb 0.00 in0.0 mm 0.00 in0.0 mm 0.47 in11.9 mm
07:34 PM 62.2°F16.8°C 54.9°F12.7°C 77% Calm Calm -- 29.96 in1014.6 mb 0.00 in0.0 mm 0.00 in0.0 mm 0.47 in11.9 mm
07:35 PM 62.2°F16.8°C 54.6°F12.6°C 76% Calm Calm -- 29.96 in1014.6 mb 0.00 in0.0 mm 0.00 in0.0 mm 0.47 in11.9 mm
07:36 PM 62.1°F16.7°C 54.8°F12.7°C 77% Calm Calm -- 29.96 in1014.6 mb 0.00 in0.0 mm 0.00 in0.0 mm 0.47 in11.9 mm
07:37 PM 62.1°F16.7°C 54.8°F12.7°C 77% Calm Calm -- 29.97 in1014.9 mb 0.00 in0.0 mm 0.00 in0.0 mm 0.47 in11.9 mm
07:38 PM 62.1°F16.7°C 54.8°F12.7°C 77% Calm Calm -- 29.97 in1014.9 mb 0.00 in0.0 mm 0.00 in0.0 mm 0.47 in11.9 mm
07:39 PM 62.1°F16.7°C 54.8°F12.7°C 77% Calm Calm -- 29.97 in1014.9 mb 0.00 in0.0 mm 0.00 in0.0 mm 0.47 in11.9 mm
07:40 PM 62.1°F16.7°C 54.8°F12.7°C 77% Calm Calm -- 29.97 in1014.9 mb 0.00 in0.0 mm 0.00 in0.0 mm 0.47 in11.9 mm
07:41 PM 62.1°F16.7°C 54.8°F12.7°C 77% Calm Calm -- 29.97 in1014.9 mb 0.00 in0.0 mm 0.00 in0.0 mm 0.47 in11.9 mm
07:42 PM 62.1°F16.7°C 54.8°F12.7°C 77% Calm Calm -- 29.97 in1014.9 mb 0.00 in0.0 mm 0.00 in0.0 mm 0.47 in11.9 mm
07:43 PM 62.1°F16.7°C 54.8°F12.7°C 77% Calm Calm -- 29.97 in1014.9 mb 0.00 in0.0 mm 0.00 in0.0 mm 0.47 in11.9 mm
07:44 PM 62.1°F16.7°C 55.1°F12.8°C 78% Calm Calm -- 29.97 in1014.9 mb 0.00 in0.0 mm 0.00 in0.0 mm 0.47 in11.9 mm
07:45 PM 62.1°F16.7°C 55.1°F12.8°C 78% Calm Calm -- 29.97 in1014.9 mb 0.00 in0.0 mm 0.00 in0.0 mm 0.47 in11.9 mm
07:46 PM 62.1°F16.7°C 55.1°F12.8°C 78% Calm Calm -- 29.97 in1014.9 mb 0.00 in0.0 mm 0.00 in0.0 mm 0.47 in11.9 mm
07:47 PM 62.1°F16.7°C 55.1°F12.8°C 78% Calm Calm -- 29.97 in1014.9 mb 0.00 in0.0 mm 0.00 in0.0 mm 0.47 in11.9 mm
07:48 PM 62.1°F16.7°C 55.1°F12.8°C 78% Calm Calm -- 29.97 in1014.9 mb 0.00 in0.0 mm 0.00 in0.0 mm 0.47 in11.9 mm
07:49 PM 62.1°F16.7°C 55.1°F12.8°C 78% Calm Calm -- 29.97 in1014.9 mb 0.00 in0.0 mm 0.00 in0.0 mm 0.47 in11.9 mm
07:50 PM 62.1°F16.7°C 55.1°F12.8°C 78% Calm Calm -- 29.97 in1014.9 mb 0.00 in0.0 mm 0.00 in0.0 mm 0.47 in11.9 mm
07:51 PM 61.9°F16.6°C 54.9°F12.7°C 78% Calm Calm 2.0 mph3.2 kmh 29.97 in1014.9 mb 0.00 in0.0 mm 0.00 in0.0 mm 0.47 in11.9 mm
07:52 PM 61.9°F16.6°C 54.9°F12.7°C 78% Calm Calm 2.0 mph3.2 kmh 29.97 in1014.9 mb 0.00 in0.0 mm 0.00 in0.0 mm 0.47 in11.9 mm
07:53 PM 61.9°F16.6°C 54.9°F12.7°C 78% Calm Calm 2.0 mph3.2 kmh 29.97 in1014.9 mb 0.00 in0.0 mm 0.00 in0.0 mm 0.47 in11.9 mm
07:54 PM 61.9°F16.6°C 54.9°F12.7°C 78% Calm Calm 2.0 mph3.2 kmh 29.97 in1014.9 mb 0.00 in0.0 mm 0.00 in0.0 mm 0.47 in11.9 mm
07:55 PM 61.9°F16.6°C 54.9°F12.7°C 78% Calm Calm 2.0 mph3.2 kmh 29.97 in1014.9 mb 0.00 in0.0 mm 0.00 in0.0 mm 0.47 in11.9 mm
07:56 PM 61.9°F16.6°C 54.9°F12.7°C 78% Calm Calm 2.0 mph3.2 kmh 29.97 in1014.9 mb 0.00 in0.0 mm 0.00 in0.0 mm 0.47 in11.9 mm
07:57 PM 61.9°F16.6°C 54.9°F12.7°C 78% Calm Calm 2.0 mph3.2 kmh 29.97 in1014.9 mb 0.00 in0.0 mm 0.00 in0.0 mm 0.47 in11.9 mm
07:58 PM 61.9°F16.6°C 54.9°F12.7°C 78% Calm Calm 2.0 mph3.2 kmh 29.97 in1014.9 mb 0.00 in0.0 mm 0.00 in0.0 mm 0.47 in11.9 mm
07:59 PM 61.9°F16.6°C 54.9°F12.7°C 78% Calm Calm 2.0 mph3.2 kmh 29.97 in1014.9 mb 0.00 in0.0 mm 0.00 in0.0 mm 0.47 in11.9 mm
08:00 PM 61.9°F16.6°C 54.9°F12.7°C 78% Calm Calm 2.0 mph3.2 kmh 29.98 in1015.2 mb 0.00 in0.0 mm 0.00 in0.0 mm 0.47 in11.9 mm
08:01 PM 61.7°F16.5°C 54.8°F12.7°C 78% Calm Calm 2.0 mph3.2 kmh 29.98 in1015.2 mb 0.00 in0.0 mm 0.00 in0.0 mm 0.47 in11.9 mm
08:02 PM 61.7°F16.5°C 54.8°F12.7°C 78% Calm Calm 1.0 mph1.6 kmh 29.98 in1015.2 mb 0.00 in0.0 mm 0.00 in0.0 mm 0.47 in11.9 mm
08:03 PM 61.7°F16.5°C 54.8°F12.7°C 78% Calm Calm -- 29.98 in1015.2 mb 0.00 in0.0 mm 0.00 in0.0 mm 0.47 in11.9 mm
08:04 PM 61.7°F16.5°C 54.8°F12.7°C 78% Calm Calm -- 29.98 in1015.2 mb 0.00 in0.0 mm 0.00 in0.0 mm 0.47 in11.9 mm
08:05 PM 61.7°F16.5°C 54.8°F12.7°C 78% Calm Calm -- 29.98 in1015.2 mb 0.00 in0.0 mm 0.00 in0.0 mm 0.47 in11.9 mm
08:06 PM 61.7°F16.5°C 54.8°F12.7°C 78% Calm Calm -- 29.98 in1015.2 mb 0.00 in0.0 mm 0.00 in0.0 mm 0.47 in11.9 mm
08:07 PM 61.5°F16.4°C 54.6°F12.6°C 78% Calm Calm -- 29.98 in1015.2 mb 0.00 in0.0 mm 0.00 in0.0 mm 0.47 in11.9 mm
08:08 PM 61.5°F16.4°C 54.6°F12.6°C 78% Calm Calm -- 29.98 in1015.2 mb 0.00 in0.0 mm 0.00 in0.0 mm 0.47 in11.9 mm
08:09 PM 61.5°F16.4°C 54.6°F12.6°C 78% Calm Calm 2.0 mph3.2 kmh 29.98 in1015.2 mb 0.00 in0.0 mm 0.00 in0.0 mm 0.47 in11.9 mm
08:10 PM 61.5°F16.4°C 54.6°F12.6°C 78% Calm Calm 2.0 mph3.2 kmh 29.98 in1015.2 mb 0.00 in0.0 mm 0.00 in0.0 mm 0.47 in11.9 mm
08:11 PM 61.5°F16.4°C 54.6°F12.6°C 78% Calm Calm 2.0 mph3.2 kmh 29.98 in1015.2 mb 0.00 in0.0 mm 0.00 in0.0 mm 0.47 in11.9 mm
08:12 PM 61.5°F16.4°C 54.6°F12.6°C 78% Calm Calm 2.0 mph3.2 kmh 29.98 in1015.2 mb 0.00 in0.0 mm 0.00 in0.0 mm 0.47 in11.9 mm
08:13 PM 61.5°F16.4°C 54.9°F12.7°C 79% Calm Calm 2.0 mph3.2 kmh 29.98 in1015.2 mb 0.00 in0.0 mm 0.00 in0.0 mm 0.47 in11.9 mm
08:14 PM 61.5°F16.4°C 54.9°F12.7°C 79% Calm Calm 2.0 mph3.2 kmh 29.98 in1015.2 mb 0.00 in0.0 mm 0.00 in0.0 mm 0.47 in11.9 mm
08:15 PM 61.5°F16.4°C 54.9°F12.7°C 79% Calm Calm 2.0 mph3.2 kmh 29.98 in1015.2 mb 0.00 in0.0 mm 0.00 in0.0 mm 0.47 in11.9 mm
08:16 PM 61.5°F16.4°C 54.9°F12.7°C 79% Calm Calm 2.0 mph3.2 kmh 29.98 in1015.2 mb 0.00 in0.0 mm 0.00 in0.0 mm 0.47 in11.9 mm
08:17 PM 61.5°F16.4°C 54.9°F12.7°C 79% Calm Calm 2.0 mph3.2 kmh 29.98 in1015.2 mb 0.00 in0.0 mm 0.00 in0.0 mm 0.47 in11.9 mm
08:18 PM 61.5°F16.4°C 54.6°F12.6°C 78% Calm Calm 2.0 mph3.2 kmh 29.98 in1015.2 mb 0.00 in0.0 mm 0.00 in0.0 mm 0.47 in11.9 mm
08:19 PM 61.5°F16.4°C 54.6°F12.6°C 78% Calm Calm 3.0 mph4.8 kmh 29.98 in1015.2 mb 0.00 in0.0 mm 0.00 in0.0 mm 0.47 in11.9 mm
08:20 PM 61.5°F16.4°C 54.6°F12.6°C 78% Calm Calm 3.0 mph4.8 kmh 29.98 in1015.2 mb 0.00 in0.0 mm 0.00 in0.0 mm 0.47 in11.9 mm
08:21 PM 61.5°F16.4°C 54.6°F12.6°C 78% Calm Calm 3.0 mph4.8 kmh 29.98 in1015.2 mb 0.00 in0.0 mm 0.00 in0.0 mm 0.47 in11.9 mm
08:22 PM 61.5°F16.4°C 54.6°F12.6°C 78% Calm Calm 3.0 mph4.8 kmh 29.98 in1015.2 mb 0.00 in0.0 mm 0.00 in0.0 mm 0.47 in11.9 mm
08:23 PM 61.5°F16.4°C 54.6°F12.6°C 78% Calm Calm 4.0 mph6.4 kmh 29.98 in1015.2 mb 0.00 in0.0 mm 0.00 in0.0 mm 0.47 in11.9 mm
08:24 PM 61.5°F16.4°C 54.6°F12.6°C 78% Calm Calm 4.0 mph6.4 kmh 29.98 in1015.2 mb 0.00 in0.0 mm 0.00 in0.0 mm 0.47 in11.9 mm
08:25 PM 61.5°F16.4°C 54.6°F12.6°C 78% Calm Calm 4.0 mph6.4 kmh 29.98 in1015.2 mb 0.00 in0.0 mm 0.00 in0.0 mm 0.47 in11.9 mm
08:26 PM 61.5°F16.4°C 54.6°F12.6°C 78% Calm Calm 4.0 mph6.4 kmh 29.98 in1015.2 mb 0.00 in0.0 mm 0.00 in0.0 mm 0.47 in11.9 mm
08:27 PM 61.5°F16.4°C 54.6°F12.6°C 78% Calm Calm 4.0 mph6.4 kmh 29.98 in1015.2 mb 0.00 in0.0 mm 0.00 in0.0 mm 0.47 in11.9 mm
08:28 PM 61.5°F16.4°C 54.9°F12.7°C 79% 1.0 mph NE1.6 kmh NE 4.0 mph6.4 kmh 29.99 in1015.6 mb 0.00 in0.0 mm 0.00 in0.0 mm 0.47 in11.9 mm
08:29 PM 61.5°F16.4°C 54.9°F12.7°C 79% 1.0 mph NE1.6 kmh NE 4.0 mph6.4 kmh 29.99 in1015.6 mb 0.00 in0.0 mm 0.00 in0.0 mm 0.47 in11.9 mm
08:30 PM 61.5°F16.4°C 54.9°F12.7°C 79% 1.0 mph NE1.6 kmh NE 4.0 mph6.4 kmh 29.99 in1015.6 mb 0.00 in0.0 mm 0.00 in0.0 mm 0.47 in11.9 mm
08:31 PM 61.5°F16.4°C 54.9°F12.7°C 79% 1.0 mph NE1.6 kmh NE 4.0 mph6.4 kmh 29.99 in1015.6 mb 0.00 in0.0 mm 0.00 in0.0 mm 0.47 in11.9 mm
08:32 PM 61.5°F16.4°C 54.9°F12.7°C 79% 1.0 mph NE1.6 kmh NE 4.0 mph6.4 kmh 29.99 in1015.6 mb 0.00 in0.0 mm 0.00 in0.0 mm 0.47 in11.9 mm
08:33 PM 61.3°F16.3°C 54.8°F12.7°C 79% 1.0 mph NE1.6 kmh NE 4.0 mph6.4 kmh 29.99 in1015.6 mb 0.00 in0.0 mm 0.00 in0.0 mm 0.47 in11.9 mm
08:34 PM 61.3°F16.3°C 55.1°F12.8°C 80% 1.0 mph NE1.6 kmh NE 4.0 mph6.4 kmh 29.99 in1015.6 mb 0.00 in0.0 mm 0.00 in0.0 mm 0.47 in11.9 mm
08:35 PM 61.3°F16.3°C 55.1°F12.8°C 80% 1.0 mph NE1.6 kmh NE 4.0 mph6.4 kmh 29.99 in1015.6 mb 0.00 in0.0 mm 0.00 in0.0 mm 0.47 in11.9 mm
08:36 PM 61.3°F16.3°C 55.1°F12.8°C 80% 1.0 mph NE1.6 kmh NE 4.0 mph6.4 kmh 29.99 in1015.6 mb 0.00 in0.0 mm 0.00 in0.0 mm 0.47 in11.9 mm
08:37 PM 61.3°F16.3°C 55.1°F12.8°C 80% 2.0 mph NE3.2 kmh NE 4.0 mph6.4 kmh 29.99 in1015.6 mb 0.00 in0.0 mm 0.00 in0.0 mm 0.47 in11.9 mm
08:38 PM 61.2°F16.2°C 54.9°F12.7°C 80% 2.0 mph NE3.2 kmh NE 4.0 mph6.4 kmh 29.99 in1015.6 mb 0.00 in0.0 mm 0.00 in0.0 mm 0.47 in11.9 mm
08:39 PM 61.2°F16.2°C 54.9°F12.7°C 80% 2.0 mph NE3.2 kmh NE 4.0 mph6.4 kmh 29.99 in1015.6 mb 0.00 in0.0 mm 0.00 in0.0 mm 0.47 in11.9 mm
08:40 PM 61.2°F16.2°C 55.3°F12.9°C 81% 2.0 mph NE3.2 kmh NE 4.0 mph6.4 kmh 29.99 in1015.6 mb 0.00 in0.0 mm 0.00 in0.0 mm 0.47 in11.9 mm
08:41 PM 61.2°F16.2°C 55.3°F12.9°C 81% 2.0 mph NE3.2 kmh NE 5.0 mph8.0 kmh 29.99 in1015.6 mb 0.00 in0.0 mm 0.00 in0.0 mm 0.47 in11.9 mm
08:42 PM 61.0°F16.1°C 55.1°F12.8°C 81% 2.0 mph NE3.2 kmh NE 5.0 mph8.0 kmh 30.00 in1015.9 mb 0.00 in0.0 mm 0.00 in0.0 mm 0.47 in11.9 mm
08:43 PM 61.0°F16.1°C 55.1°F12.8°C 81% 2.0 mph NE3.2 kmh NE 5.0 mph8.0 kmh 29.99 in1015.6 mb 0.00 in0.0 mm 0.00 in0.0 mm 0.47 in11.9 mm
08:44 PM 61.0°F16.1°C 55.1°F12.8°C 81% 2.0 mph NE3.2 kmh NE 5.0 mph8.0 kmh 30.00 in1015.9 mb 0.00 in0.0 mm 0.00 in0.0 mm 0.47 in11.9 mm
08:45 PM 61.0°F16.1°C 55.1°F12.8°C 81% 2.0 mph NE3.2 kmh NE 5.0 mph8.0 kmh 30.00 in1015.9 mb 0.00 in0.0 mm 0.00 in0.0 mm 0.47 in11.9 mm
08:46 PM 60.8°F16.0°C 55.3°F12.9°C 82% 2.0 mph NE3.2 kmh NE 5.0 mph8.0 kmh 30.00 in1015.9 mb 0.00 in0.0 mm 0.00 in0.0 mm 0.47 in11.9 mm
08:47 PM 60.8°F16.0°C 55.3°F12.9°C 82% 2.0 mph NE3.2 kmh NE 5.0 mph8.0 kmh 30.00 in1015.9 mb 0.00 in0.0 mm 0.00 in0.0 mm 0.47 in11.9 mm
08:48 PM 60.6°F15.9°C 55.1°F12.8°C 82% 2.0 mph NE3.2 kmh NE 5.0 mph8.0 kmh 30.00 in1015.9 mb 0.00 in0.0 mm 0.00 in0.0 mm 0.47 in11.9 mm
08:49 PM 60.6°F15.9°C 55.1°F12.8°C 82% 2.0 mph NE3.2 kmh NE 5.0 mph8.0 kmh 30.00 in1015.9 mb 0.00 in0.0 mm 0.00 in0.0 mm 0.47 in11.9 mm
08:50 PM 60.4°F15.8°C 55.3°F12.9°C 83% 2.0 mph ENE3.2 kmh ENE 5.0 mph8.0 kmh 30.00 in1015.9 mb 0.00 in0.0 mm 0.00 in0.0 mm 0.47 in11.9 mm
08:51 PM 60.4°F15.8°C 55.3°F12.9°C 83% 2.0 mph ENE3.2 kmh ENE 5.0 mph8.0 kmh 30.00 in1015.9 mb 0.00 in0.0 mm 0.00 in0.0 mm 0.47 in11.9 mm
08:52 PM 60.4°F15.8°C 55.3°F12.9°C 83% 2.0 mph ENE3.2 kmh ENE 4.0 mph6.4 kmh 30.00 in1015.9 mb 0.00 in0.0 mm 0.00 in0.0 mm 0.47 in11.9 mm
08:53 PM 60.3°F15.7°C 55.4°F13.0°C 84% 2.0 mph ENE3.2 kmh ENE 4.0 mph6.4 kmh 30.00 in1015.9 mb 0.00 in0.0 mm 0.00 in0.0 mm 0.47 in11.9 mm
08:54 PM 60.3°F15.7°C 55.4°F13.0°C 84% 2.0 mph ENE3.2 kmh ENE 4.0 mph6.4 kmh 30.00 in1015.9 mb 0.00 in0.0 mm 0.00 in0.0 mm 0.47 in11.9 mm
08:55 PM 60.3°F15.7°C 55.4°F13.0°C 84% 2.0 mph ENE3.2 kmh ENE 4.0 mph6.4 kmh 30.00 in1015.9 mb 0.00 in0.0 mm 0.00 in0.0 mm 0.47 in11.9 mm
08:56 PM 60.1°F15.6°C 55.2°F12.9°C 84% 2.0 mph ENE3.2 kmh ENE 4.0 mph6.4 kmh 30.00 in1015.9 mb 0.00 in0.0 mm 0.00 in0.0 mm 0.47 in11.9 mm
08:57 PM 60.1°F15.6°C 55.2°F12.9°C 84% 2.0 mph ENE3.2 kmh ENE 4.0 mph6.4 kmh 30.00 in1015.9 mb 0.00 in0.0 mm 0.00 in0.0 mm 0.47 in11.9 mm
08:58 PM 60.1°F15.6°C 55.2°F12.9°C 84% 2.0 mph ENE3.2 kmh ENE 4.0 mph6.4 kmh 30.00 in1015.9 mb 0.00 in0.0 mm 0.00 in0.0 mm 0.47 in11.9 mm
08:59 PM 59.9°F15.5°C 55.4°F13.0°C 85% 2.0 mph ENE3.2 kmh ENE 4.0 mph6.4 kmh 30.00 in1015.9 mb 0.00 in0.0 mm 0.00 in0.0 mm 0.47 in11.9 mm
09:00 PM 59.7°F15.4°C 55.2°F12.9°C 85% 2.0 mph ENE3.2 kmh ENE 4.0 mph6.4 kmh 30.00 in1015.9 mb 0.00 in0.0 mm 0.00 in0.0 mm 0.47 in11.9 mm
09:01 PM 59.7°F15.4°C 55.2°F12.9°C 85% 2.0 mph ENE3.2 kmh ENE 4.0 mph6.4 kmh 30.00 in1015.9 mb 0.00 in0.0 mm 0.00 in0.0 mm 0.47 in11.9 mm
09:02 PM 59.7°F15.4°C 55.2°F12.9°C 85% 2.0 mph ENE3.2 kmh ENE 4.0 mph6.4 kmh 30.00 in1015.9 mb 0.00 in0.0 mm 0.00 in0.0 mm 0.47 in11.9 mm
09:03 PM 59.5°F15.3°C 55.0°F12.8°C 85% 2.0 mph ENE3.2 kmh ENE 4.0 mph6.4 kmh 30.00 in1015.9 mb 0.00 in0.0 mm 0.00 in0.0 mm 0.47 in11.9 mm
09:04 PM 59.5°F15.3°C 55.0°F12.8°C 85% 2.0 mph ENE3.2 kmh ENE 4.0 mph6.4 kmh 30.01 in1016.3 mb 0.00 in0.0 mm 0.00 in0.0 mm 0.47 in11.9 mm
09:05 PM 59.5°F15.3°C 55.0°F12.8°C 85% 2.0 mph ENE3.2 kmh ENE 4.0 mph6.4 kmh 30.01 in1016.3 mb 0.00 in0.0 mm 0.00 in0.0 mm 0.47 in11.9 mm
09:06 PM 59.5°F15.3°C 55.0°F12.8°C 85% 2.0 mph ENE3.2 kmh ENE 4.0 mph6.4 kmh 30.01 in1016.3 mb 0.00 in0.0 mm 0.00 in0.0 mm 0.47 in11.9 mm
09:07 PM 59.5°F15.3°C 55.0°F12.8°C 85% 2.0 mph ENE3.2 kmh ENE 4.0 mph6.4 kmh 30.01 in1016.3 mb 0.00 in0.0 mm 0.00 in0.0 mm 0.47 in11.9 mm
09:08 PM 59.4°F15.2°C 54.8°F12.7°C 85% 2.0 mph ENE3.2 kmh ENE 4.0 mph6.4 kmh 30.01 in1016.3 mb 0.00 in0.0 mm 0.00 in0.0 mm 0.47 in11.9 mm
09:09 PM 59.4°F15.2°C 54.8°F12.7°C 85% 2.0 mph ENE3.2 kmh ENE 4.0 mph6.4 kmh 30.01 in1016.3 mb 0.00 in0.0 mm 0.00 in0.0 mm 0.47 in11.9 mm
09:10 PM 59.4°F15.2°C 54.8°F12.7°C 85% 2.0 mph ENE3.2 kmh ENE 4.0 mph6.4 kmh 30.01 in1016.3 mb 0.00 in0.0 mm 0.00 in0.0 mm 0.47 in11.9 mm
09:11 PM 59.4°F15.2°C 54.8°F12.7°C 85% 2.0 mph ENE3.2 kmh ENE 4.0 mph6.4 kmh 30.01 in1016.3 mb 0.00 in0.0 mm 0.00 in0.0 mm 0.47 in11.9 mm
09:12 PM 59.4°F15.2°C 54.8°F12.7°C 85% 2.0 mph NE3.2 kmh NE 4.0 mph6.4 kmh 30.01 in1016.3 mb 0.00 in0.0 mm 0.00 in0.0 mm 0.47 in11.9 mm
09:13 PM 59.4°F15.2°C 54.8°F12.7°C 85% 2.0 mph NE3.2 kmh NE 4.0 mph6.4 kmh 30.01 in1016.3 mb 0.00 in0.0 mm 0.00 in0.0 mm 0.47 in11.9 mm
09:14 PM 59.4°F15.2°C 54.8°F12.7°C 85% 2.0 mph NE3.2 kmh NE 4.0 mph6.4 kmh 30.01 in1016.3 mb 0.00 in0.0 mm 0.00 in0.0 mm 0.47 in11.9 mm
09:15 PM 59.4°F15.2°C 54.8°F12.7°C 85% 2.0 mph NE3.2 kmh NE 4.0 mph6.4 kmh 30.01 in1016.3 mb 0.00 in0.0 mm 0.00 in0.0 mm 0.47 in11.9 mm
09:16 PM 59.2°F15.1°C 54.7°F12.6°C 85% 2.0 mph NE3.2 kmh NE 4.0 mph6.4 kmh 30.01 in1016.3 mb 0.00 in0.0 mm 0.00 in0.0 mm 0.47 in11.9 mm
09:17 PM 59.2°F15.1°C 54.7°F12.6°C 85% 2.0 mph NE3.2 kmh NE 4.0 mph6.4 kmh 30.01 in1016.3 mb 0.00 in0.0 mm 0.00 in0.0 mm 0.47 in11.9 mm
09:18 PM 59.2°F15.1°C 54.7°F12.6°C 85% 2.0 mph NE3.2 kmh NE 3.0 mph4.8 kmh 30.01 in1016.3 mb 0.00 in0.0 mm 0.00 in0.0 mm 0.47 in11.9 mm
09:19 PM 59.2°F15.1°C 54.7°F12.6°C 85% 2.0 mph NE3.2 kmh NE 3.0 mph4.8 kmh 30.01 in1016.3 mb 0.00 in0.0 mm 0.00 in0.0 mm 0.47 in11.9 mm
09:20 PM 59.2°F15.1°C 54.7°F12.6°C 85% 2.0 mph NE3.2 kmh NE 3.0 mph4.8 kmh 30.01 in1016.3 mb 0.00 in0.0 mm 0.00 in0.0 mm 0.47 in11.9 mm
09:21 PM 59.2°F15.1°C 54.7°F12.6°C 85% 1.0 mph NE1.6 kmh NE 3.0 mph4.8 kmh 30.01 in1016.3 mb 0.00 in0.0 mm 0.00 in0.0 mm 0.47 in11.9 mm
09:22 PM 59.2°F15.1°C 54.7°F12.6°C 85% 1.0 mph NE1.6 kmh NE 3.0 mph4.8 kmh 30.01 in1016.3 mb 0.00 in0.0 mm 0.00 in0.0 mm 0.47 in11.9 mm
09:23 PM 59.0°F15.0°C 54.5°F12.5°C 85% 1.0 mph NE1.6 kmh NE 3.0 mph4.8 kmh 30.01 in1016.3 mb 0.00 in0.0 mm 0.00 in0.0 mm 0.47 in11.9 mm
09:24 PM 59.0°F15.0°C 54.5°F12.5°C 85% 1.0 mph NE1.6 kmh NE 3.0 mph4.8 kmh 30.01 in1016.3 mb 0.00 in0.0 mm 0.00 in0.0 mm 0.47 in11.9 mm
09:25 PM 59.0°F15.0°C 54.5°F12.5°C 85% 1.0 mph NE1.6 kmh NE 3.0 mph4.8 kmh 30.01 in1016.3 mb 0.00 in0.0 mm 0.00 in0.0 mm 0.47 in11.9 mm
09:26 PM 59.0°F15.0°C 54.5°F12.5°C 85% 1.0 mph NE1.6 kmh NE 3.0 mph4.8 kmh 30.01 in1016.3 mb 0.00 in0.0 mm 0.00 in0.0 mm 0.47 in11.9 mm
09:27 PM 59.0°F15.0°C 54.5°F12.5°C 85% 1.0 mph NE1.6 kmh NE 3.0 mph4.8 kmh 30.01 in1016.3 mb 0.00 in0.0 mm 0.00 in0.0 mm 0.47 in11.9 mm
09:28 PM 59.0°F15.0°C 54.5°F12.5°C 85% 1.0 mph NE1.6 kmh NE 3.0 mph4.8 kmh 30.01 in1016.3 mb 0.00 in0.0 mm 0.00 in0.0 mm 0.47 in11.9 mm
09:29 PM 58.8°F14.9°C 54.3°F12.4°C 85% 1.0 mph NE1.6 kmh NE 2.0 mph3.2 kmh 30.01 in1016.3 mb 0.00 in0.0 mm 0.00 in0.0 mm 0.47 in11.9 mm
09:30 PM 58.8°F14.9°C 54.3°F12.4°C 85% 1.0 mph NE1.6 kmh NE 2.0 mph3.2 kmh 30.01 in1016.3 mb 0.00 in0.0 mm 0.00 in0.0 mm 0.47 in11.9 mm
09:31 PM 58.8°F14.9°C 54.3°F12.4°C 85% 1.0 mph NE1.6 kmh NE 2.0 mph3.2 kmh 30.02 in1016.6 mb 0.00 in0.0 mm 0.00 in0.0 mm 0.47 in11.9 mm
09:32 PM 58.8°F14.9°C 54.3°F12.4°C 85% Calm Calm 2.0 mph3.2 kmh 30.02 in1016.6 mb 0.00 in0.0 mm 0.00 in0.0 mm 0.47 in11.9 mm
09:33 PM 58.8°F14.9°C 54.3°F12.4°C 85% Calm Calm 2.0 mph3.2 kmh 30.02 in1016.6 mb 0.00 in0.0 mm 0.00 in0.0 mm 0.47 in11.9 mm
09:34 PM 58.8°F14.9°C 54.3°F12.4°C 85% Calm Calm 1.0 mph1.6 kmh 30.02 in1016.6 mb 0.00 in0.0 mm 0.00 in0.0 mm 0.47 in11.9 mm
09:35 PM 58.8°F14.9°C 54.3°F12.4°C 85% Calm Calm 1.0 mph1.6 kmh 30.02 in1016.6 mb 0.00 in0.0 mm 0.00 in0.0 mm 0.47 in11.9 mm
09:36 PM 58.8°F14.9°C 54.3°F12.4°C 85% Calm Calm 1.0 mph1.6 kmh 30.02 in1016.6 mb 0.00 in0.0 mm 0.00 in0.0 mm 0.47 in11.9 mm
09:37 PM 58.8°F14.9°C 54.3°F12.4°C 85% Calm Calm 1.0 mph1.6 kmh 30.02 in1016.6 mb 0.00 in0.0 mm 0.00 in0.0 mm 0.47 in11.9 mm
09:38 PM 58.8°F14.9°C 54.3°F12.4°C 85% Calm Calm 1.0 mph1.6 kmh 30.02 in1016.6 mb 0.00 in0.0 mm 0.00 in0.0 mm 0.47 in11.9 mm
09:39 PM 58.6°F14.8°C 54.1°F12.3°C 85% Calm Calm 1.0 mph1.6 kmh 30.02 in1016.6 mb 0.00 in0.0 mm 0.00 in0.0 mm 0.47 in11.9 mm
09:40 PM 58.6°F14.8°C 54.1°F12.3°C 85% Calm Calm 1.0 mph1.6 kmh 30.02 in1016.6 mb 0.00 in0.0 mm 0.00 in0.0 mm 0.47 in11.9 mm
09:41 PM 58.6°F14.8°C 54.1°F12.3°C 85% Calm Calm 1.0 mph1.6 kmh 30.02 in1016.6 mb 0.00 in0.0 mm 0.00 in0.0 mm 0.47 in11.9 mm
09:42 PM 58.6°F14.8°C 54.1°F12.3°C 85% Calm Calm 1.0 mph1.6 kmh 30.02 in1016.6 mb 0.00 in0.0 mm 0.00 in0.0 mm 0.47 in11.9 mm
09:43 PM 58.6°F14.8°C 54.1°F12.3°C 85% Calm Calm 3.0 mph4.8 kmh 30.02 in1016.6 mb 0.00 in0.0 mm 0.00 in0.0 mm 0.47 in11.9 mm
09:44 PM 58.6°F14.8°C 54.1°F12.3°C 85% Calm Calm 3.0 mph4.8 kmh 30.02 in1016.6 mb 0.00 in0.0 mm 0.00 in0.0 mm 0.47 in11.9 mm
09:45 PM 58.6°F14.8°C 54.1°F12.3°C 85% Calm Calm 3.0 mph4.8 kmh 30.02 in1016.6 mb 0.00 in0.0 mm 0.00 in0.0 mm 0.47 in11.9 mm
09:46 PM 58.5°F14.7°C 54.0°F12.2°C 85% Calm Calm 3.0 mph4.8 kmh 30.02 in1016.6 mb 0.00 in0.0 mm 0.00 in0.0 mm 0.47 in11.9 mm
09:47 PM 58.5°F14.7°C 54.3°F12.4°C 86% Calm Calm 3.0 mph4.8 kmh 30.02 in1016.6 mb 0.00 in0.0 mm 0.00 in0.0 mm 0.47 in11.9 mm
09:48 PM 58.5°F14.7°C 54.3°F12.4°C 86% Calm Calm 3.0 mph4.8 kmh 30.02 in1016.6 mb 0.00 in0.0 mm 0.00 in0.0 mm 0.47 in11.9 mm
09:49 PM 58.5°F14.7°C 54.3°F12.4°C 86% Calm Calm 3.0 mph4.8 kmh 30.02 in1016.6 mb 0.00 in0.0 mm 0.00 in0.0 mm 0.47 in11.9 mm
09:50 PM 58.5°F14.7°C 54.3°F12.4°C 86% Calm Calm 3.0 mph4.8 kmh 30.02 in1016.6 mb 0.00 in0.0 mm 0.00 in0.0 mm 0.47 in11.9 mm
09:51 PM 58.5°F14.7°C 54.3°F12.4°C 86% Calm Calm 3.0 mph4.8 kmh 30.02 in1016.6 mb 0.00 in0.0 mm 0.00 in0.0 mm 0.47 in11.9 mm
09:52 PM 58.5°F14.7°C 54.3°F12.4°C 86% Calm Calm 3.0 mph4.8 kmh 30.02 in1016.6 mb 0.00 in0.0 mm 0.00 in0.0 mm 0.47 in11.9 mm
09:53 PM 58.5°F14.7°C 54.3°F12.4°C 86% Calm Calm 2.0 mph3.2 kmh 30.02 in1016.6 mb 0.00 in0.0 mm 0.00 in0.0 mm 0.47 in11.9 mm
09:54 PM 58.5°F14.7°C 54.3°F12.4°C 86% Calm Calm 3.0 mph4.8 kmh 30.02 in1016.6 mb 0.00 in0.0 mm 0.00 in0.0 mm 0.47 in11.9 mm
09:55 PM 58.5°F14.7°C 54.3°F12.4°C 86% Calm Calm 4.0 mph6.4 kmh 30.02 in1016.6 mb 0.00 in0.0 mm 0.00 in0.0 mm 0.47 in11.9 mm
09:56 PM 58.5°F14.7°C 54.3°F12.4°C 86% 1.0 mph NE1.6 kmh NE 4.0 mph6.4 kmh 30.02 in1016.6 mb 0.00 in0.0 mm 0.00 in0.0 mm 0.47 in11.9 mm
09:57 PM 58.5°F14.7°C 54.3°F12.4°C 86% 1.0 mph NE1.6 kmh NE 4.0 mph6.4 kmh 30.02 in1016.6 mb 0.00 in0.0 mm 0.00 in0.0 mm 0.47 in11.9 mm
09:58 PM 58.5°F14.7°C 54.3°F12.4°C 86% 1.0 mph NE1.6 kmh NE 4.0 mph6.4 kmh 30.02 in1016.6 mb 0.00 in0.0 mm 0.00 in0.0 mm 0.47 in11.9 mm
09:59 PM 58.5°F14.7°C 54.3°F12.4°C 86% 1.0 mph NE1.6 kmh NE 4.0 mph6.4 kmh 30.02 in1016.6 mb 0.00 in0.0 mm 0.00 in0.0 mm 0.47 in11.9 mm
10:00 PM 58.5°F14.7°C 54.3°F12.4°C 86% 1.0 mph NE1.6 kmh NE 4.0 mph6.4 kmh 30.02 in1016.6 mb 0.00 in0.0 mm 0.00 in0.0 mm 0.47 in11.9 mm
10:01 PM 58.3°F14.6°C 54.1°F12.3°C 86% 1.0 mph NE1.6 kmh NE 4.0 mph6.4 kmh 30.02 in1016.6 mb 0.00 in0.0 mm 0.00 in0.0 mm 0.47 in11.9 mm
10:02 PM 58.3°F14.6°C 54.1°F12.3°C 86% 1.0 mph NE1.6 kmh NE 4.0 mph6.4 kmh 30.02 in1016.6 mb 0.00 in0.0 mm 0.00 in0.0 mm 0.47 in11.9 mm
10:03 PM 58.3°F14.6°C 54.1°F12.3°C 86% 1.0 mph NE1.6 kmh NE 4.0 mph6.4 kmh 30.02 in1016.6 mb 0.00 in0.0 mm 0.00 in0.0 mm 0.47 in11.9 mm
10:04 PM 58.3°F14.6°C 54.1°F12.3°C 86% 1.0 mph NE1.6 kmh NE 4.0 mph6.4 kmh 30.02 in1016.6 mb 0.00 in0.0 mm 0.00 in0.0 mm 0.47 in11.9 mm
10:05 PM 58.3°F14.6°C 54.1°F12.3°C 86% 2.0 mph NE3.2 kmh NE 4.0 mph6.4 kmh 30.02 in1016.6 mb 0.00 in0.0 mm 0.00 in0.0 mm 0.47 in11.9 mm
10:06 PM 58.3°F14.6°C 54.1°F12.3°C 86% 2.0 mph NE3.2 kmh NE 4.0 mph6.4 kmh 30.02 in1016.6 mb 0.00 in0.0 mm 0.00 in0.0 mm 0.47 in11.9 mm
10:07 PM 58.1°F14.5°C 54.2°F12.3°C 87% 2.0 mph NE3.2 kmh NE 4.0 mph6.4 kmh 30.02 in1016.6 mb 0.00 in0.0 mm 0.00 in0.0 mm 0.47 in11.9 mm
10:08 PM 58.1°F14.5°C 54.2°F12.3°C 87% 2.0 mph NE3.2 kmh NE 4.0 mph6.4 kmh 30.02 in1016.6 mb 0.00 in0.0 mm 0.00 in0.0 mm 0.47 in11.9 mm
10:09 PM 57.9°F14.4°C 54.1°F12.3°C 87% 2.0 mph NE3.2 kmh NE 4.0 mph6.4 kmh 30.02 in1016.6 mb 0.00 in0.0 mm 0.00 in0.0 mm 0.47 in11.9 mm
10:10 PM 57.9°F14.4°C 54.1°F12.3°C 87% 2.0 mph NE3.2 kmh NE 4.0 mph6.4 kmh 30.02 in1016.6 mb 0.00 in0.0 mm 0.00 in0.0 mm 0.47 in11.9 mm
10:11 PM 57.9°F14.4°C 54.1°F12.3°C 87% 2.0 mph NE3.2 kmh NE 4.0 mph6.4 kmh 30.02 in1016.6 mb 0.00 in0.0 mm 0.00 in0.0 mm 0.47 in11.9 mm
10:12 PM 57.9°F14.4°C 54.1°F12.3°C 87% 2.0 mph NE3.2 kmh NE 4.0 mph6.4 kmh 30.02 in1016.6 mb 0.00 in0.0 mm 0.00 in0.0 mm 0.47 in11.9 mm
10:13 PM 57.7°F14.3°C 53.9°F12.2°C 87% 2.0 mph NE3.2 kmh NE 4.0 mph6.4 kmh 30.02 in1016.6 mb 0.00 in0.0 mm 0.00 in0.0 mm 0.47 in11.9 mm
10:14 PM 57.7°F14.3°C 53.9°F12.2°C 87% 2.0 mph NE3.2 kmh NE 2.0 mph3.2 kmh 30.02 in1016.6 mb 0.00 in0.0 mm 0.00 in0.0 mm 0.47 in11.9 mm
10:15 PM 57.7°F14.3°C 53.9°F12.2°C 87% 1.0 mph NE1.6 kmh NE 2.0 mph3.2 kmh 30.02 in1016.6 mb 0.00 in0.0 mm 0.00 in0.0 mm 0.47 in11.9 mm
10:16 PM 57.6°F14.2°C 53.7°F12.1°C 87% 1.0 mph NE1.6 kmh NE 2.0 mph3.2 kmh 30.02 in1016.6 mb 0.00 in0.0 mm 0.00 in0.0 mm 0.47 in11.9 mm
10:17 PM 57.6°F14.2°C 53.7°F12.1°C 87% 1.0 mph NE1.6 kmh NE 2.0 mph3.2 kmh 30.02 in1016.6 mb 0.00 in0.0 mm 0.00 in0.0 mm 0.47 in11.9 mm
10:18 PM 57.6°F14.2°C 54.0°F12.2°C 88% 1.0 mph NE1.6 kmh NE 2.0 mph3.2 kmh 30.02 in1016.6 mb 0.00 in0.0 mm 0.00 in0.0 mm 0.47 in11.9 mm
10:19 PM 57.4°F14.1°C 53.9°F12.2°C 88% 1.0 mph NE1.6 kmh NE 2.0 mph3.2 kmh 30.02 in1016.6 mb 0.00 in0.0 mm 0.00 in0.0 mm 0.47 in11.9 mm
10:20 PM 57.4°F14.1°C 53.9°F12.2°C 88% Calm Calm 2.0 mph3.2 kmh 30.02 in1016.6 mb 0.00 in0.0 mm 0.00 in0.0 mm 0.47 in11.9 mm
10:21 PM 57.4°F14.1°C 53.9°F12.2°C 88% Calm Calm 2.0 mph3.2 kmh 30.02 in1016.6 mb 0.00 in0.0 mm 0.00 in0.0 mm 0.47 in11.9 mm
10:22 PM 57.4°F14.1°C 53.9°F12.2°C 88% Calm Calm 3.0 mph4.8 kmh 30.02 in1016.6 mb 0.00 in0.0 mm 0.00 in0.0 mm 0.47 in11.9 mm
10:23 PM 57.2°F14.0°C 53.7°F12.1°C 88% Calm Calm 3.0 mph4.8 kmh 30.02 in1016.6 mb 0.00 in0.0 mm 0.00 in0.0 mm 0.47 in11.9 mm
10:24 PM 57.2°F14.0°C 53.7°F12.1°C 88% Calm Calm 3.0 mph4.8 kmh 30.02 in1016.6 mb 0.00 in0.0 mm 0.00 in0.0 mm 0.47 in11.9 mm
10:25 PM 57.0°F13.9°C 53.8°F12.1°C 89% Calm Calm 3.0 mph4.8 kmh 30.02 in1016.6 mb 0.00 in0.0 mm 0.00 in0.0 mm 0.47 in11.9 mm
10:26 PM 57.0°F13.9°C 53.8°F12.1°C 89% Calm Calm 3.0 mph4.8 kmh 30.02 in1016.6 mb 0.00 in0.0 mm 0.00 in0.0 mm 0.47 in11.9 mm
10:27 PM 57.0°F13.9°C 53.8°F12.1°C 89% Calm Calm 3.0 mph4.8 kmh 30.02 in1016.6 mb 0.00 in0.0 mm 0.00 in0.0 mm 0.47 in11.9 mm
10:28 PM 57.0°F13.9°C 53.8°F12.1°C 89% Calm Calm 3.0 mph4.8 kmh 30.02 in1016.6 mb 0.00 in0.0 mm 0.00 in0.0 mm 0.47 in11.9 mm
10:29 PM 57.0°F13.9°C 53.8°F12.1°C 89% Calm Calm 3.0 mph4.8 kmh 30.02 in1016.6 mb 0.00 in0.0 mm 0.00 in0.0 mm 0.47 in11.9 mm
10:30 PM 56.8°F13.8°C 53.6°F12.0°C 89% Calm Calm 3.0 mph4.8 kmh 30.02 in1016.6 mb 0.00 in0.0 mm 0.00 in0.0 mm 0.47 in11.9 mm
10:31 PM 56.8°F13.8°C 53.6°F12.0°C 89% Calm Calm 3.0 mph4.8 kmh 30.02 in1016.6 mb 0.00 in0.0 mm 0.00 in0.0 mm 0.47 in11.9 mm
10:32 PM 56.8°F13.8°C 53.6°F12.0°C 89% Calm Calm 3.0 mph4.8 kmh 30.02 in1016.6 mb 0.00 in0.0 mm 0.00 in0.0 mm 0.47 in11.9 mm
10:33 PM 56.8°F13.8°C 53.6°F12.0°C 89% Calm Calm 2.0 mph3.2 kmh 30.02 in1016.6 mb 0.00 in0.0 mm 0.00 in0.0 mm 0.47 in11.9 mm
10:34 PM 56.8°F13.8°C 53.6°F12.0°C 89% Calm Calm 2.0 mph3.2 kmh 30.02 in1016.6 mb 0.00 in0.0 mm 0.00 in0.0 mm 0.47 in11.9 mm
10:35 PM 56.8°F13.8°C 53.6°F12.0°C 89% Calm Calm 2.0 mph3.2 kmh 30.02 in1016.6 mb 0.00 in0.0 mm 0.00 in0.0 mm 0.47 in11.9 mm
10:36 PM 56.8°F13.8°C 53.6°F12.0°C 89% Calm Calm 3.0 mph4.8 kmh 30.03 in1016.9 mb 0.00 in0.0 mm 0.00 in0.0 mm 0.47 in11.9 mm
10:37 PM 56.7°F13.7°C 53.5°F11.9°C 89% Calm Calm 3.0 mph4.8 kmh 30.03 in1016.9 mb 0.00 in0.0 mm 0.00 in0.0 mm 0.47 in11.9 mm
10:38 PM 56.7°F13.7°C 53.5°F11.9°C 89% Calm Calm 3.0 mph4.8 kmh 30.03 in1016.9 mb 0.00 in0.0 mm 0.00 in0.0 mm 0.47 in11.9 mm
10:39 PM 56.7°F13.7°C 53.5°F11.9°C 89% Calm Calm 3.0 mph4.8 kmh 30.03 in1016.9 mb 0.00 in0.0 mm 0.00 in0.0 mm 0.47 in11.9 mm
10:40 PM 56.7°F13.7°C 53.5°F11.9°C 89% Calm Calm 3.0 mph4.8 kmh 30.03 in1016.9 mb 0.00 in0.0 mm 0.00 in0.0 mm 0.47 in11.9 mm
10:41 PM 56.7°F13.7°C 53.5°F11.9°C 89% Calm Calm 3.0 mph4.8 kmh 30.03 in1016.9 mb 0.00 in0.0 mm 0.00 in0.0 mm 0.47 in11.9 mm
10:42 PM 56.7°F13.7°C 53.5°F11.9°C 89% Calm Calm 3.0 mph4.8 kmh 30.03 in1016.9 mb 0.00 in0.0 mm 0.00 in0.0 mm 0.47 in11.9 mm
10:43 PM 56.7°F13.7°C 53.5°F11.9°C 89% Calm Calm 3.0 mph4.8 kmh 30.03 in1016.9 mb 0.00 in0.0 mm 0.00 in0.0 mm 0.47 in11.9 mm
10:44 PM 56.7°F13.7°C 53.5°F11.9°C 89% 1.0 mph NE1.6 kmh NE 3.0 mph4.8 kmh 30.03 in1016.9 mb 0.00 in0.0 mm 0.00 in0.0 mm 0.47 in11.9 mm
10:45 PM 56.7°F13.7°C 53.5°F11.9°C 89% 1.0 mph NE1.6 kmh NE 3.0 mph4.8 kmh 30.03 in1016.9 mb 0.00 in0.0 mm 0.00 in0.0 mm 0.47 in11.9 mm
10:46 PM 56.5°F13.6°C 53.3°F11.8°C 89% 1.0 mph NE1.6 kmh NE 2.0 mph3.2 kmh 30.03 in1016.9 mb 0.00 in0.0 mm 0.00 in0.0 mm 0.47 in11.9 mm
10:47 PM 56.5°F13.6°C 53.3°F11.8°C 89% 1.0 mph NE1.6 kmh NE 2.0 mph3.2 kmh 30.03 in1016.9 mb 0.00 in0.0 mm 0.00 in0.0 mm 0.47 in11.9 mm
10:48 PM 56.5°F13.6°C 53.3°F11.8°C 89% 1.0 mph NE1.6 kmh NE 2.0 mph3.2 kmh 30.03 in1016.9 mb 0.00 in0.0 mm 0.00 in0.0 mm 0.47 in11.9 mm
10:49 PM 56.5°F13.6°C 53.3°F11.8°C 89% 1.0 mph NE1.6 kmh NE 2.0 mph3.2 kmh 30.03 in1016.9 mb 0.00 in0.0 mm 0.00 in0.0 mm 0.47 in11.9 mm
10:50 PM 56.5°F13.6°C 53.6°F12.0°C 90% 1.0 mph NE1.6 kmh NE 2.0 mph3.2 kmh 30.03 in1016.9 mb 0.00 in0.0 mm 0.00 in0.0 mm 0.47 in11.9 mm
10:51 PM 56.5°F13.6°C 53.6°F12.0°C 90% Calm Calm 2.0 mph3.2 kmh 30.03 in1016.9 mb 0.00 in0.0 mm 0.00 in0.0 mm 0.47 in11.9 mm
10:52 PM 56.5°F13.6°C 53.6°F12.0°C 90% Calm Calm 2.0 mph3.2 kmh 30.03 in1016.9 mb 0.00 in0.0 mm 0.00 in0.0 mm 0.47 in11.9 mm
10:53 PM 56.5°F13.6°C 53.6°F12.0°C 90% Calm Calm 2.0 mph3.2 kmh 30.03 in1016.9 mb 0.00 in0.0 mm 0.00 in0.0 mm 0.47 in11.9 mm
10:54 PM 56.5°F13.6°C 53.6°F12.0°C 90% Calm Calm 2.0 mph3.2 kmh 30.03 in1016.9 mb 0.00 in0.0 mm 0.00 in0.0 mm 0.47 in11.9 mm
10:55 PM 56.5°F13.6°C 53.6°F12.0°C 90% Calm Calm 2.0 mph3.2 kmh 30.03 in1016.9 mb 0.00 in0.0 mm 0.00 in0.0 mm 0.47 in11.9 mm
10:56 PM 56.5°F13.6°C 53.6°F12.0°C 90% Calm Calm 2.0 mph3.2 kmh 30.03 in1016.9 mb 0.00 in0.0 mm 0.00 in0.0 mm 0.47 in11.9 mm
10:57 PM 56.5°F13.6°C 53.6°F12.0°C 90% Calm Calm 2.0 mph3.2 kmh 30.03 in1016.9 mb 0.00 in0.0 mm 0.00 in0.0 mm 0.47 in11.9 mm
10:58 PM 56.5°F13.6°C 53.6°F12.0°C 90% Calm Calm 2.0 mph3.2 kmh 30.03 in1016.9 mb 0.00 in0.0 mm 0.00 in0.0 mm 0.47 in11.9 mm
10:59 PM 56.5°F13.6°C 53.6°F12.0°C 90% Calm Calm 2.0 mph3.2 kmh 30.03 in1016.9 mb 0.00 in0.0 mm 0.00 in0.0 mm 0.47 in11.9 mm
11:00 PM 56.5°F13.6°C 53.6°F12.0°C 90% Calm Calm 2.0 mph3.2 kmh 30.03 in1016.9 mb 0.00 in0.0 mm 0.00 in0.0 mm 0.44 in11.2 mm
11:01 PM 56.5°F13.6°C 53.6°F12.0°C 90% Calm Calm 2.0 mph3.2 kmh 30.03 in1016.9 mb 0.00 in0.0 mm 0.00 in0.0 mm 0.44 in11.2 mm
11:02 PM 56.3°F13.5°C 53.4°F11.9°C 90% Calm Calm -- 30.03 in1016.9 mb 0.00 in0.0 mm 0.00 in0.0 mm 0.44 in11.2 mm
11:03 PM 56.3°F13.5°C 53.4°F11.9°C 90% Calm Calm -- 30.03 in1016.9 mb 0.00 in0.0 mm 0.00 in0.0 mm 0.44 in11.2 mm
11:04 PM 56.3°F13.5°C 53.4°F11.9°C 90% Calm Calm -- 30.03 in1016.9 mb 0.00 in0.0 mm 0.00 in0.0 mm 0.44 in11.2 mm
11:05 PM 56.1°F13.4°C 53.2°F11.8°C 90% Calm Calm -- 30.03 in1016.9 mb 0.00 in0.0 mm 0.00 in0.0 mm 0.44 in11.2 mm
11:06 PM 56.1°F13.4°C 53.2°F11.8°C 90% Calm Calm -- 30.03 in1016.9 mb 0.00 in0.0 mm 0.00 in0.0 mm 0.44 in11.2 mm
11:07 PM 56.1°F13.4°C 53.2°F11.8°C 90% Calm Calm -- 30.03 in1016.9 mb 0.00 in0.0 mm 0.00 in0.0 mm 0.44 in11.2 mm
11:08 PM 56.1°F13.4°C 53.2°F11.8°C 90% Calm Calm -- 30.03 in1016.9 mb 0.00 in0.0 mm 0.00 in0.0 mm 0.44 in11.2 mm
11:09 PM 56.1°F13.4°C 53.2°F11.8°C 90% Calm Calm -- 30.03 in1016.9 mb 0.00 in0.0 mm 0.00 in0.0 mm 0.44 in11.2 mm
11:10 PM 56.1°F13.4°C 53.2°F11.8°C 90% Calm Calm -- 30.03 in1016.9 mb 0.00 in0.0 mm 0.00 in0.0 mm 0.44 in11.2 mm
11:11 PM 56.1°F13.4°C 53.2°F11.8°C 90% Calm Calm -- 30.03 in1016.9 mb 0.00 in0.0 mm 0.00 in0.0 mm 0.44 in11.2 mm
11:12 PM 56.1°F13.4°C 53.2°F11.8°C 90% Calm Calm -- 30.03 in1016.9 mb 0.00 in0.0 mm 0.00 in0.0 mm 0.44 in11.2 mm
11:13 PM 56.1°F13.4°C 53.2°F11.8°C 90% Calm Calm -- 30.03 in1016.9 mb 0.00 in0.0 mm 0.00 in0.0 mm 0.44 in11.2 mm
11:14 PM 56.1°F13.4°C 53.2°F11.8°C 90% Calm Calm -- 30.03 in1016.9 mb 0.00 in0.0 mm 0.00 in0.0 mm 0.44 in11.2 mm
11:15 PM 55.9°F13.3°C 53.0°F11.7°C 90% Calm Calm -- 30.03 in1016.9 mb 0.00 in0.0 mm 0.00 in0.0 mm 0.44 in11.2 mm
11:16 PM 55.9°F13.3°C 53.0°F11.7°C 90% Calm Calm -- 30.03 in1016.9 mb 0.00 in0.0 mm 0.00 in0.0 mm 0.44 in11.2 mm
11:17 PM 55.9°F13.3°C 53.0°F11.7°C 90% Calm Calm -- 30.03 in1016.9 mb 0.00 in0.0 mm 0.00 in0.0 mm 0.44 in11.2 mm
11:18 PM 55.9°F13.3°C 53.0°F11.7°C 90% Calm Calm 1.0 mph1.6 kmh 30.03 in1016.9 mb 0.00 in0.0 mm 0.00 in0.0 mm 0.44 in11.2 mm
11:19 PM 55.9°F13.3°C 53.0°F11.7°C 90% Calm Calm 1.0 mph1.6 kmh 30.03 in1016.9 mb 0.00 in0.0 mm 0.00 in0.0 mm 0.44 in11.2 mm
11:20 PM 55.9°F13.3°C 53.0°F11.7°C 90% Calm Calm 1.0 mph1.6 kmh 30.03 in1016.9 mb 0.00 in0.0 mm 0.00 in0.0 mm 0.44 in11.2 mm
11:21 PM 55.9°F13.3°C 53.0°F11.7°C 90% Calm Calm 1.0 mph1.6 kmh 30.03 in1016.9 mb 0.00 in0.0 mm 0.00 in0.0 mm 0.44 in11.2 mm
11:22 PM 55.8°F13.2°C 52.9°F11.6°C 90% Calm Calm 1.0 mph1.6 kmh 30.03 in1016.9 mb 0.00 in0.0 mm 0.00 in0.0 mm 0.44 in11.2 mm
11:23 PM 55.8°F13.2°C 52.9°F11.6°C 90% Calm Calm 1.0 mph1.6 kmh 30.03 in1016.9 mb 0.00 in0.0 mm 0.00 in0.0 mm 0.44 in11.2 mm
11:24 PM 55.8°F13.2°C 52.9°F11.6°C 90% Calm Calm 1.0 mph1.6 kmh 30.03 in1016.9 mb 0.00 in0.0 mm 0.00 in0.0 mm 0.44 in11.2 mm
11:25 PM 55.8°F13.2°C 52.9°F11.6°C 90% Calm Calm 1.0 mph1.6 kmh 30.03 in1016.9 mb 0.00 in0.0 mm 0.00 in0.0 mm 0.44 in11.2 mm
11:26 PM 55.8°F13.2°C 52.9°F11.6°C 90% Calm Calm 1.0 mph1.6 kmh 30.03 in1016.9 mb 0.00 in0.0 mm 0.00 in0.0 mm 0.44 in11.2 mm
11:27 PM 55.6°F13.1°C 52.7°F11.5°C 90% Calm Calm 1.0 mph1.6 kmh 30.03 in1016.9 mb 0.00 in0.0 mm 0.00 in0.0 mm 0.44 in11.2 mm
11:28 PM 55.6°F13.1°C 52.7°F11.5°C 90% Calm Calm 1.0 mph1.6 kmh 30.03 in1016.9 mb 0.00 in0.0 mm 0.00 in0.0 mm 0.44 in11.2 mm
11:29 PM 55.6°F13.1°C 52.7°F11.5°C 90% Calm Calm 1.0 mph1.6 kmh 30.03 in1016.9 mb 0.00 in0.0 mm 0.00 in0.0 mm 0.44 in11.2 mm
11:30 PM 55.6°F13.1°C 52.7°F11.5°C 90% Calm Calm 1.0 mph1.6 kmh 30.03 in1016.9 mb 0.00 in0.0 mm 0.00 in0.0 mm 0.44 in11.2 mm
11:31 PM 55.6°F13.1°C 52.7°F11.5°C 90% Calm Calm 1.0 mph1.6 kmh 30.03 in1016.9 mb 0.00 in0.0 mm 0.00 in0.0 mm 0.44 in11.2 mm
11:32 PM 55.6°F13.1°C 52.7°F11.5°C 90% Calm Calm 1.0 mph1.6 kmh 30.03 in1016.9 mb 0.00 in0.0 mm 0.00 in0.0 mm 0.44 in11.2 mm
11:33 PM 55.6°F13.1°C 52.7°F11.5°C 90% Calm Calm 1.0 mph1.6 kmh 30.03 in1016.9 mb 0.00 in0.0 mm 0.00 in0.0 mm 0.44 in11.2 mm
11:34 PM 55.6°F13.1°C 52.7°F11.5°C 90% Calm Calm 1.0 mph1.6 kmh 30.03 in1016.9 mb 0.00 in0.0 mm 0.00 in0.0 mm 0.44 in11.2 mm
11:35 PM 55.6°F13.1°C 52.7°F11.5°C 90% Calm Calm -- 30.03 in1016.9 mb 0.00 in0.0 mm 0.00 in0.0 mm 0.44 in11.2 mm
11:36 PM 55.6°F13.1°C 52.7°F11.5°C 90% Calm Calm -- 30.03 in1016.9 mb 0.00 in0.0 mm 0.00 in0.0 mm 0.44 in11.2 mm
11:37 PM 55.4°F13.0°C 52.5°F11.4°C 90% Calm Calm -- 30.03 in1016.9 mb 0.00 in0.0 mm 0.00 in0.0 mm 0.44 in11.2 mm
11:38 PM 55.4°F13.0°C 52.2°F11.2°C 89% Calm Calm -- 30.03 in1016.9 mb 0.00 in0.0 mm 0.00 in0.0 mm 0.44 in11.2 mm